M I D A S
Marine Information and Data Acquisition System
Tripno 862 of the Zeeleeuw from 2005-03-14 08:39:53 to 2005-03-14 13:46:52
Back to CruiseResearch ActivitiesStationsMapUnderway DataData graphs

EquipmentUnitsComment
TimeDGPSUTC
LatitudeDGPSDM.mWGS84
LongitudeDGPSDM.mWGS84
TemperatureSBE03/SBE38deg celciusITS90
ConductivitySBE21S/mITS90
SalinitySBE21 Practical Salinity Units
ChlorophylAChelsea fluorimeterg/lCalibrated in Aceton
Missing or incorrect values are displayed as -999
Sea surface data collected by the RV Zeeleeuw from 2005-03-14 08:40:48 to 2005-03-14 13:56:38
                                                                                    Next 1000 lines
Time Latitude Longitude Temperature Conductivity Salinity ChlorophylA
2005-03-14 08:40:57 51°13.621 2°56.046 13.3909 0.082494 0.410919 -0.882377
2005-03-14 08:41:03 51°13.622 2°56.04 13.4256 0.082494 0.410925 -0.916087
2005-03-14 08:41:09 51°13.625 2°56.033 13.3942 0.082494 0.410919 -0.882377
2005-03-14 08:41:14 51°13.626 2°56.027 13.3952 0.082494 0.410919 -0.882377
2005-03-14 08:41:19 51°13.629 2°56.02 13.3774 0.082494 0.41093 -0.882377
2005-03-14 08:41:24 51°13.631 2°56.013 13.4047 0.082494 0.41093 -0.882377
2005-03-14 08:41:29 51°13.632 2°56.005 13.4644 0.082494 0.41093 -0.882377
2005-03-14 08:41:34 51°13.634 2°55.998 13.4914 0.082494 0.41093 -0.916087
2005-03-14 08:41:39 51°13.636 2°55.99 13.5656 0.082494 0.41093 -0.848668
2005-03-14 08:41:44 51°13.637 2°55.983 13.578 0.082494 0.41093 -0.848668
2005-03-14 08:41:49 51°13.639 2°55.978 13.5662 0.082494 0.41093 -0.882377
2005-03-14 08:41:54 51°13.639 2°55.976 13.5758 0.082494 0.410936 -0.882377
2005-03-14 08:41:59 51°13.639 2°55.977 13.3949 0.082598 0.411477 -0.848668
2005-03-14 08:42:04 51°13.639 2°55.978 13.3613 0.082598 0.411465 -0.916087
2005-03-14 08:42:09 51°13.638 2°55.978 13.3629 0.082598 0.411465 -0.848668
2005-03-14 08:42:13 51°13.639 2°55.977 13.4576 0.082598 0.411465 -0.848668
2005-03-14 08:42:19 51°13.64 2°55.975 13.2666 0.082598 0.411471 -0.882377
2005-03-14 08:42:23 51°13.64 2°55.973 13.4188 0.082598 0.411483 -0.848668
2005-03-14 08:42:29 51°13.642 2°55.968 13.4176 0.082598 0.411495 -0.882377
2005-03-14 08:42:34 51°13.644 2°55.964 13.3911 0.082598 0.4115 -0.882377
2005-03-14 08:42:39 51°13.646 2°55.959 13.4194 0.082598 0.411518 -0.882377
2005-03-14 08:42:45 51°13.648 2°55.952 13.4524 0.082598 0.411518 -0.882377
2005-03-14 08:42:49 51°13.651 2°55.947 13.467 0.082598 0.411518 -0.882377
2005-03-14 08:42:54 51°13.653 2°55.94 13.4999 0.082598 0.411518 -0.882377
2005-03-14 08:42:59 51°13.656 2°55.934 13.4866 0.082598 0.411506 -0.882377
2005-03-14 08:43:04 51°13.659 2°55.926 13.5045 0.082598 0.411512 -0.916087
2005-03-14 08:43:09 51°13.662 2°55.919 13.4957 0.082598 0.411512 -0.882377
2005-03-14 08:43:14 51°13.665 2°55.912 13.4937 0.082598 0.411512 -0.882377
2005-03-14 08:43:19 51°13.669 2°55.905 13.4812 0.082598 0.411512 -0.916087
2005-03-14 08:43:24 51°13.672 2°55.896 13.482 0.082598 0.411518 -0.882377
2005-03-14 08:43:29 51°13.676 2°55.888 13.4714 0.082598 0.411524 -0.916087
2005-03-14 08:43:35 51°13.68 2°55.879 13.4879 0.082598 0.41153 -0.882377
2005-03-14 08:43:39 51°13.683 2°55.872 13.4701 0.082598 0.411535 -0.848668
2005-03-14 08:43:44 51°13.687 2°55.863 13.4749 0.082598 0.411535 -0.848668
2005-03-14 08:43:49 51°13.69 2°55.854 13.4659 0.082598 0.411535 -0.916087
2005-03-14 08:43:54 51°13.694 2°55.845 13.4644 0.082598 0.41153 -0.882377
2005-03-14 08:43:59 51°13.698 2°55.835 13.4673 0.082598 0.411535 -0.848668
2005-03-14 08:44:04 51°13.701 2°55.826 10.8962 0.082598 0.411535 -0.882377
2005-03-14 08:44:09 51°13.704 2°55.817 7.8504 0.082598 0.4115 -0.680121
2005-03-14 08:44:14 51°13.707 2°55.808 6.645 0.082598 0.4115 -0.680121
2005-03-14 08:44:19 51°13.711 2°55.799 5.5955 0.185569 0.961787 -0.74754
2005-03-14 08:44:24 51°13.714 2°55.789 5.2358 0.190668 0.989774 -0.410446
2005-03-14 08:44:29 51°13.716 2°55.78 4.9532 0.463549 2.745216 0.769383
2005-03-14 08:44:34 51°13.718 2°55.772 4.9518 0.843798 5.880105 2.050341
2005-03-14 08:44:39 51°13.721 2°55.763 4.842 1.948212 15.936954 2.926785
2005-03-14 08:44:45 51°13.723 2°55.752 4.7872 1.948212 15.936954 2.926785
2005-03-14 08:44:49 51°13.724 2°55.746 4.7201 2.338227 20.727525 4.848221
2005-03-14 08:44:53 51°13.725 2°55.74 4.6614 2.440006 22.71233 5.45499
2005-03-14 08:44:59 51°13.726 2°55.735 4.6537 2.430763 23.435453 5.219024
2005-03-14 08:45:03 51°13.727 2°55.732 4.5267 2.415522 23.676435 4.814512
2005-03-14 08:45:09 51°13.728 2°55.731 4.4881 2.382407 23.544559 4.443708
2005-03-14 08:45:14 51°13.729 2°55.731 4.5274 2.382407 23.544559 4.443708
2005-03-14 08:45:19 51°13.73 2°55.733 4.4701 2.360227 23.422588 4.308871
2005-03-14 08:45:24 51°13.731 2°55.735 4.4532 2.344985 23.369392 4.005486
2005-03-14 08:45:29 51°13.732 2°55.736 4.4323 2.346248 23.466795 3.836939
2005-03-14 08:45:34 51°13.732 2°55.736 4.4176 2.315554 23.203447 3.80323
2005-03-14 08:45:39 51°13.732 2°55.735 4.4513 2.303152 23.12737 3.735811
2005-03-14 08:45:43 51°13.732 2°55.734 4.4135 2.303152 23.12737 3.735811
2005-03-14 08:45:49 51°13.731 2°55.731 4.4054 2.32407 23.406077 3.702101
2005-03-14 08:45:54 51°13.73 2°55.727 4.3799 2.292642 23.090707 3.735811
2005-03-14 08:45:59 51°13.728 2°55.723 4.3973 2.309985 23.300469 3.600973
2005-03-14 08:46:03 51°13.727 2°55.721 4.3823 2.28003 23.011757 3.668392
2005-03-14 08:46:09 51°13.726 2°55.716 4.3679 2.289489 23.126692 3.702101
2005-03-14 08:46:13 51°13.725 2°55.714 4.366 2.289489 23.126692 3.702101
2005-03-14 08:46:19 51°13.725 2°55.713 4.3277 2.273303 22.956881 3.80323
2005-03-14 08:46:24 51°13.726 2°55.713 4.3217 2.256382 22.787418 3.938067
2005-03-14 08:46:29 51°13.728 2°55.714 4.3182 2.248185 22.71971 3.971777
2005-03-14 08:46:35 51°13.731 2°55.715 4.3241 2.239988 22.631482 3.904358
2005-03-14 08:46:39 51°13.734 2°55.715 4.3197 2.248185 22.737801 3.870648
2005-03-14 08:46:44 51°13.739 2°55.715 4.3363 2.248185 22.737801 3.870648
2005-03-14 08:46:49 51°13.744 2°55.713 4.3265 2.255647 22.834339 3.80323
2005-03-14 08:46:53 51°13.748 2°55.711 4.3341 2.266998 22.979656 3.735811
2005-03-14 08:46:59 51°13.755 2°55.706 4.3381 2.260377 22.914738 3.702101
2005-03-14 08:47:03 51°13.758 2°55.703 4.3405 2.223384 22.512504 3.668392
2005-03-14 08:47:09 51°13.765 2°55.698 4.3475 2.246925 22.78372 3.634683
2005-03-14 08:47:13 51°13.77 2°55.692 4.36 2.246925 22.78372 3.634683
2005-03-14 08:47:19 51°13.778 2°55.685 4.3644 2.219496 22.480804 3.702101
2005-03-14 08:47:23 51°13.783 2°55.68 4.3737 2.220547 22.495442 3.76952
2005-03-14 08:47:29 51°13.793 2°55.671 4.3981 2.202051 22.292962 3.80323
2005-03-14 08:47:34 51°13.8 2°55.665 4.4159 2.194591 22.2086 3.971777
2005-03-14 08:47:39 51°13.808 2°55.658 4.4832 2.188391 22.139413 4.275161
2005-03-14 08:47:42 51°13.814 2°55.653 4.46 2.188391 22.139413 4.275161
2005-03-14 08:47:49 51°13.825 2°55.643 4.4635 2.189862 22.152739 4.477418
2005-03-14 08:47:54 51°13.834 2°55.636 4.4821 2.17431 21.976105 4.645965
2005-03-14 08:47:57 51°13.841 2°55.631 4.4287 2.129025 21.471758 4.713383
2005-03-14 08:48:03 51°13.847 2°55.626 4.3797 2.085637 20.979674 4.814512
2005-03-14 08:48:09 51°13.863 2°55.613 4.4019 2.041308 20.474235 4.91564
2005-03-14 08:48:13 51°13.871 2°55.607 4.3817 2.041308 20.474235 4.91564
2005-03-14 08:48:18 51°13.881 2°55.599 4.397 1.994254 19.944926 5.016768
2005-03-14 08:48:23 51°13.89 2°55.593 4.356 1.968419 19.666384 5.050477
2005-03-14 08:48:29 51°13.902 2°55.584 4.321 1.972514 19.714158 4.949349
2005-03-14 08:48:33 51°13.911 2°55.577 4.3063 1.982386 19.834438 4.747093
2005-03-14 08:48:39 51°13.922 2°55.568 4.2741 2.044564 20.530067 4.645965
2005-03-14 08:48:44 51°13.934 2°55.56 4.2541 2.044564 20.530067 4.645965
2005-03-14 08:48:49 51°13.943 2°55.553 4.2534 2.088893 21.024398 4.578546
2005-03-14 08:48:54 51°13.954 2°55.545 4.225 2.087213 21.012631 4.409999
2005-03-14 08:48:59 51°13.965 2°55.536 4.2211 2.131967 21.518494 4.308871
2005-03-14 08:49:04 51°13.977 2°55.527 4.2094 2.154662 21.785777 4.241452
2005-03-14 08:49:09 51°13.987 2°55.52 4.2142 2.178724 22.068931 4.140324
2005-03-14 08:49:13 51°13.997 2°55.512 4.2107 2.178724 22.068931 4.140324
2005-03-14 08:49:19 51°14.011 2°55.502 4.2031 2.2113 22.452173 4.039195
2005-03-14 08:49:23 51°14.018 2°55.496 4.2023 2.247871 22.86971 3.971777
2005-03-14 08:49:29 51°14.032 2°55.486 4.2053 2.296429 23.422884 3.938067
2005-03-14 08:49:33 51°14.042 2°55.478 4.2004 2.336792 23.887542 3.971777
2005-03-14 08:49:38 51°14.053 2°55.469 4.2054 2.350984 24.055522 4.005486
2005-03-14 08:49:43 51°14.065 2°55.461 4.2072 2.350984 24.055522 4.005486
2005-03-14 08:49:49 51°14.077 2°55.452 4.2048 2.376214 24.347675 4.106614
2005-03-14 08:49:54 51°14.089 2°55.443 4.1903 2.39703 24.585509 4.174033
2005-03-14 08:49:57 51°14.097 2°55.436 4.1933 2.400395 24.625977 4.241452
2005-03-14 08:50:04 51°14.113 2°55.424 4.1756 2.409331 24.728497 4.174033
2005-03-14 08:50:09 51°14.125 2°55.414 4.1903 2.413326 24.774787 4.207742
2005-03-14 08:50:13 51°14.136 2°55.406 4.1835 2.413326 24.774787 4.207742
2005-03-14 08:50:19 51°14.15 2°55.394 4.1953 2.414693 24.792164 4.275161
2005-03-14 08:50:23 51°14.16 2°55.385 4.1968 2.396505 24.590132 4.34258
2005-03-14 08:50:29 51°14.175 2°55.371 4.187 2.402708 24.66454 4.34258
2005-03-14 08:50:34 51°14.188 2°55.358 4.1946 2.415114 24.808193 4.308871
2005-03-14 08:50:39 51°14.199 2°55.346 4.1989 2.416691 24.830614 4.275161
2005-03-14 08:50:43 51°14.21 2°55.334 4.1907 2.416691 24.830614 4.275161
2005-03-14 08:50:49 51°14.222 2°55.318 4.1967 2.341628 23.986605 4.241452
2005-03-14 08:50:54 51°14.233 2°55.302 4.1761 2.373902 24.347773 4.174033
2005-03-14 08:50:59 51°14.244 2°55.286 4.1786 2.398607 24.626317 3.971777
2005-03-14 08:51:03 51°14.253 2°55.272 4.1704 2.390197 24.535618 3.938067
2005-03-14 08:51:09 51°14.266 2°55.251 4.1771 2.388094 24.51196 3.80323
2005-03-14 08:51:13 51°14.275 2°55.234 4.1636 2.388094 24.51196 3.80323
2005-03-14 08:51:19 51°14.286 2°55.213 4.1624 2.386307 24.493166 3.702101
2005-03-14 08:51:23 51°14.295 2°55.196 4.1516 2.388515 24.517349 3.668392
2005-03-14 08:51:29 51°14.306 2°55.175 4.1539 2.386622 24.501312 3.567264
2005-03-14 08:51:33 51°14.315 2°55.158 4.1566 2.383469 24.471073 3.466136
2005-03-14 08:51:39 51°14.327 2°55.137 4.1455 2.398818 24.647178 3.432426
2005-03-14 08:51:43 51°14.336 2°55.121 4.1634 2.398818 24.647178 3.432426
2005-03-14 08:51:49 51°14.348 2°55.098 4.1689 2.40029 24.669051 3.432426
2005-03-14 08:51:53 51°14.358 2°55.082 4.1416 2.423841 24.936573 3.365007
2005-03-14 08:51:59 51°14.37 2°55.061 4.1321 2.437615 25.100105 3.398717
2005-03-14 08:52:03 51°14.38 2°55.044 4.1544 2.45202 25.264208 3.331298
2005-03-14 08:52:09 51°14.392 2°55.025 4.1323 2.458749 25.340965 3.398717
2005-03-14 08:52:13 51°14.403 2°55.009 4.1187 2.458749 25.340965 3.398717
2005-03-14 08:52:19 51°14.418 2°54.989 4.1242 2.452651 25.274731 3.365007
2005-03-14 08:52:23 51°14.429 2°54.973 4.1127 2.463901 25.399231 3.331298
2005-03-14 08:52:29 51°14.444 2°54.954 4.0875 2.474312 25.525223 3.297589
2005-03-14 08:52:33 51°14.456 2°54.938 4.0575 2.482829 25.625102 3.331298
2005-03-14 08:52:38 51°14.47 2°54.922 4.0634 2.479674 25.589374 3.331298
2005-03-14 08:52:44 51°14.486 2°54.904 4.0604 2.479674 25.589374 3.331298
2005-03-14 08:52:49 51°14.501 2°54.889 4.0424 2.502809 25.861243 3.297589
2005-03-14 08:52:53 51°14.514 2°54.876 4.0062 2.527838 26.152339 3.331298
2005-03-14 08:52:59 51°14.53 2°54.858 4.0192 2.532781 26.214838 3.432426
2005-03-14 08:53:03 51°14.542 2°54.846 4.0178 2.565489 26.601921 3.466136
2005-03-14 08:53:09 51°14.56 2°54.829 4.0053 2.591784 26.916131 3.499845
2005-03-14 08:53:13 51°14.574 2°54.818 4.0016 2.591784 26.916131 3.499845
2005-03-14 08:53:19 51°14.591 2°54.804 3.9839 2.602828 27.053861 3.668392
2005-03-14 08:53:23 51°14.604 2°54.795 3.9775 2.623234 27.298865 3.600973
2005-03-14 08:53:28 51°14.618 2°54.786 3.9766 2.631544 27.410944 3.567264
2005-03-14 08:53:33 51°14.632 2°54.779 3.9886 2.641432 27.527186 3.600973
2005-03-14 08:53:39 51°14.646 2°54.774 3.9951 2.604406 27.109848 3.567264
2005-03-14 08:53:43 51°14.657 2°54.771 3.9521 2.604406 27.109848 3.567264
2005-03-14 08:53:49 51°14.668 2°54.769 3.9337 2.645009 27.581563 3.634683
2005-03-14 08:53:53 51°14.677 2°54.767 3.9442 2.668994 27.868051 3.600973
2005-03-14 08:53:59 51°14.688 2°54.765 3.935 2.681828 28.027619 3.466136
2005-03-14 08:54:03 51°14.694 2°54.763 3.9126 2.691612 28.144706 3.466136
2005-03-14 08:54:08 51°14.703 2°54.761 3.9073 2.69582 28.190086 3.466136
2005-03-14 08:54:13 51°14.711 2°54.759 3.9032 2.69582 28.190086 3.466136
2005-03-14 08:54:19 51°14.718 2°54.756 3.8978 2.703395 28.285669 3.365007
2005-03-14 08:54:24 51°14.725 2°54.753 3.8997 2.678883 28.02099 3.297589
2005-03-14 08:54:28 51°14.73 2°54.75 3.8972 2.724437 28.55741 3.19646
2005-03-14 08:54:33 51°14.736 2°54.748 3.8936 2.724647 28.567564 3.19646
2005-03-14 08:54:39 51°14.743 2°54.744 3.8933 2.724332 28.572423 3.061623
2005-03-14 08:54:43 51°14.747 2°54.741 3.8885 2.724332 28.572423 3.061623
2005-03-14 08:54:47 51°14.751 2°54.739 3.8891 2.727909 28.624572 3.027913
2005-03-14 08:54:53 51°14.757 2°54.734 3.8905 2.734117 28.701733 2.825657
2005-03-14 08:54:58 51°14.762 2°54.73 3.8904 2.723385 28.583922 2.859366
2005-03-14 08:55:03 51°14.766 2°54.727 3.8989 2.724543 28.602717 2.724529
2005-03-14 08:55:09 51°14.772 2°54.722 3.8897 2.732118 28.694168 2.690819
2005-03-14 08:55:13 51°14.775 2°54.719 3.8897 2.732118 28.694168 2.690819
2005-03-14 08:55:19 51°14.779 2°54.714 3.8874 2.729908 28.670175 2.589691
2005-03-14 08:55:23 51°14.782 2°54.711 3.9047 2.738641 28.771168 2.555982
2005-03-14 08:55:29 51°14.786 2°54.706 3.9012 2.729487 28.666862 2.488563
2005-03-14 08:55:33 51°14.789 2°54.702 3.8969 2.734959 28.730132 2.421144
2005-03-14 08:55:39 51°14.792 2°54.698 3.8934 2.742113 28.814457 2.454853
2005-03-14 08:55:43 51°14.795 2°54.694 3.8937 2.742113 28.814457 2.454853
2005-03-14 08:55:49 51°14.798 2°54.689 3.8871 2.717388 28.52855 2.454853
2005-03-14 08:55:53 51°14.801 2°54.685 3.8837 2.737589 28.763674 2.421144
2005-03-14 08:55:59 51°14.804 2°54.681 3.874 2.736221 28.743956 2.387435
2005-03-14 08:56:03 51°14.806 2°54.677 3.8741 2.72591 28.625504 2.353725
2005-03-14 08:56:09 51°14.809 2°54.672 3.874 2.735169 28.734901 2.353725
2005-03-14 08:56:13 51°14.811 2°54.669 3.8713 2.735169 28.734901 2.353725
2005-03-14 08:56:19 51°14.814 2°54.664 3.8688 2.723701 28.602287 2.353725
2005-03-14 08:56:24 51°14.817 2°54.66 3.8661 2.738851 28.7814 2.286306
2005-03-14 08:56:29 51°14.819 2°54.656 3.8667 2.73822 28.778776 2.218888
2005-03-14 08:56:33 51°14.821 2°54.653 3.8615 2.739272 28.793293 2.185178
2005-03-14 08:56:39 51°14.824 2°54.648 3.8649 2.736432 28.765096 2.185178
2005-03-14 08:56:44 51°14.826 2°54.644 3.867 2.736432 28.765096 2.185178
2005-03-14 08:56:47 51°14.827 2°54.642 3.8512 2.734117 28.740645 2.185178
2005-03-14 08:56:53 51°14.83 2°54.637 3.8561 2.743481 28.851394 2.185178
2005-03-14 08:56:59 51°14.832 2°54.633 3.8555 2.73538 28.758377 2.08405
2005-03-14 08:57:04 51°14.834 2°54.629 3.8512 2.731382 28.714437 2.08405
2005-03-14 08:57:09 51°14.836 2°54.625 3.8579 2.734012 28.748002 2.050341
2005-03-14 08:57:13 51°14.838 2°54.622 3.8551 2.734012 28.748002 2.050341
2005-03-14 08:57:18 51°14.839 2°54.618 3.8556 2.710024 28.472776 2.016631
2005-03-14 08:57:23 51°14.841 2°54.615 3.849 2.740009 28.825261 2.050341
2005-03-14 08:57:29 51°14.843 2°54.611 3.8522 2.74064 28.834139 1.949212
2005-03-14 08:57:33 51°14.844 2°54.608 3.8538 2.729383 28.703757 1.982922
2005-03-14 08:57:38 51°14.846 2°54.604 3.8462 2.741377 28.845019 1.949212
2005-03-14 08:57:43 51°14.848 2°54.6 3.8553 2.741377 28.845019 1.949212
2005-03-14 08:57:49 51°14.85 2°54.596 3.8447 2.734749 28.769014 1.881794
2005-03-14 08:57:53 51°14.852 2°54.592 3.843 2.741798 28.850678 1.949212
2005-03-14 08:57:59 51°14.856 2°54.587 3.847 2.736222 28.78842 1.881794
2005-03-14 08:58:03 51°14.859 2°54.584 3.8433 2.733065 28.751858 1.915503
2005-03-14 08:58:09 51°14.863 2°54.579 3.8385 2.734643 28.772481 1.848084
2005-03-14 08:58:13 51°14.868 2°54.575 3.8366 2.734643 28.772481 1.848084
2005-03-14 08:58:17 51°14.873 2°54.57 3.8367 2.727594 28.690834 1.881794
2005-03-14 08:58:23 51°14.881 2°54.564 3.8409 2.723491 28.644877 1.881794
2005-03-14 08:58:29 51°14.889 2°54.557 3.8406 2.727384 28.691512 1.881794
2005-03-14 08:58:33 51°14.896 2°54.552 3.8463 2.724543 28.658615 1.915503
2005-03-14 08:58:38 51°14.905 2°54.545 3.8415 2.734223 28.773072 1.915503
2005-03-14 08:58:44 51°14.917 2°54.537 3.8371 2.734223 28.773072 1.915503
2005-03-14 08:58:49 51°14.928 2°54.529 3.8375 2.727699 28.70218 1.949212
2005-03-14 08:58:53 51°14.939 2°54.522 3.8442 2.719598 28.610681 1.949212
2005-03-14 08:58:59 51°14.953 2°54.513 3.8439 2.738115 28.824441 2.050341
2005-03-14 08:59:03 51°14.963 2°54.507 3.8452 2.740746 28.853365 2.050341
2005-03-14 08:59:09 51°14.98 2°54.496 3.8486 2.733065 28.770598 2.151469
2005-03-14 08:59:14 51°14.994 2°54.487 3.8498 2.733065 28.770598 2.151469
2005-03-14 08:59:19 51°15.008 2°54.478 3.8493 2.726542 28.69111 2.185178
2005-03-14 08:59:23 51°15.019 2°54.471 3.8403 2.713181 28.535596 2.185178
2005-03-14 08:59:29 51°15.037 2°54.459 3.8573 2.720861 28.625303 2.286306
2005-03-14 08:59:33 51°15.05 2°54.45 3.8513 2.731592 28.748842 2.387435
2005-03-14 08:59:38 51°15.064 2°54.44 3.838 2.741482 28.862686 2.454853
2005-03-14 08:59:43 51°15.079 2°54.428 3.8491 2.741482 28.862686 2.454853
2005-03-14 08:59:49 51°15.095 2°54.415 3.8353 2.730961 28.736065 2.488563
2005-03-14 08:59:53 51°15.108 2°54.404 3.8326 2.701503 28.393506 2.6234
2005-03-14 08:59:58 51°15.122 2°54.391 3.8362 2.715495 28.55619 2.724529
2005-03-14 09:00:03 51°15.137 2°54.377 3.8402 2.744533 28.89257 2.859366
2005-03-14 09:00:09 51°15.153 2°54.363 3.8476 2.738957 28.830284 2.960494
2005-03-14 09:00:14 51°15.168 2°54.349 3.8677 2.738957 28.830284 2.960494
2005-03-14 09:00:19 51°15.182 2°54.336 3.8541 2.750426 28.965601 3.129042
2005-03-14 09:00:23 51°15.196 2°54.324 3.8536 2.749584 28.958985 3.23017
2005-03-14 09:00:29 51°15.213 2°54.311 3.8387 2.748111 28.945045 3.162751
2005-03-14 09:00:33 51°15.226 2°54.3 3.8407 2.743166 28.889263 3.23017
2005-03-14 09:00:38 51°15.242 2°54.289 3.8312 2.745796 28.915057 3.331298
2005-03-14 09:00:43 51°15.258 2°54.277 3.8395 2.745796 28.915057 3.331298
2005-03-14 09:00:49 51°15.276 2°54.263 3.8372 2.749479 28.952261 3.331298
2005-03-14 09:00:53 51°15.289 2°54.254 3.8272 2.752845 28.986586 3.365007
2005-03-14 09:00:58 51°15.305 2°54.241 3.8249 2.751899 28.973245 3.398717
2005-03-14 09:01:03 51°15.319 2°54.23 3.8296 2.751057 28.96899 3.567264
2005-03-14 09:01:09 51°15.338 2°54.214 3.8184 2.734749 28.786982 3.76952
2005-03-14 09:01:13 51°15.35 2°54.203 3.8174 2.734749 28.786982 3.76952
2005-03-14 09:01:18 51°15.367 2°54.188 3.8316 2.755686 29.03293 3.870648
2005-03-14 09:01:23 51°15.383 2°54.174 3.8479 2.760842 29.093551 4.072905
2005-03-14 09:01:29 51°15.4 2°54.159 3.836 2.747374 28.939646 4.275161
2005-03-14 09:01:33 51°15.414 2°54.147 3.8339 2.757791 29.062084 4.443708
2005-03-14 09:01:39 51°15.431 2°54.133 3.8432 2.745796 28.927626 4.477418
2005-03-14 09:01:43 51°15.446 2°54.122 3.8571 2.745796 28.927626 4.477418
2005-03-14 09:01:49 51°15.464 2°54.109 3.8343 2.758317 29.078459 4.241452
2005-03-14 09:01:53 51°15.479 2°54.099 3.8367 2.756213 29.051659 3.938067
2005-03-14 09:01:59 51°15.498 2°54.087 3.8303 2.748847 28.955947 3.80323
2005-03-14 09:02:03 51°15.513 2°54.078 3.8358 2.75495 29.026749 3.499845
2005-03-14 09:02:09 51°15.531 2°54.067 3.8281 2.759264 29.078392 3.19646
2005-03-14 09:02:13 51°15.546 2°54.058 3.8331 2.759264 29.078392 3.19646
2005-03-14 09:02:19 51°15.565 2°54.046 3.823 2.751688 28.981032 3.027913
2005-03-14 09:02:22 51°15.577 2°54.038 3.8072 2.756213 29.034303 2.690819
2005-03-14 09:02:29 51°15.599 2°54.022 3.8073 2.756213 29.040612 2.589691
2005-03-14 09:02:33 51°15.613 2°54.01 3.8021 2.75011 28.968233 2.353725
2005-03-14 09:02:39 51°15.631 2°53.994 3.7922 2.75758 29.058853 2.286306
2005-03-14 09:02:43 51°15.644 2°53.982 3.7928 2.75758 29.058853 2.286306
2005-03-14 09:02:49 51°15.663 2°53.964 3.8116 2.765367 29.151612 2.185178
2005-03-14 09:02:54 51°15.679 2°53.95 3.8126 2.760211 29.097288 2.286306
2005-03-14 09:02:59 51°15.696 2°53.935 3.8025 2.765472 29.170268 2.08405
2005-03-14 09:03:03 51°15.709 2°53.924 3.8162 2.760001 29.110664 2.016631
2005-03-14 09:03:09 51°15.729 2°53.908 3.8002 2.765367 29.179358 1.915503
2005-03-14 09:03:13 51°15.743 2°53.895 3.8057 2.765367 29.179358 1.915503
2005-03-14 09:03:19 51°15.762 2°53.881 3.818 2.76705 29.20369 1.881794
2005-03-14 09:03:23 51°15.777 2°53.869 3.8165 2.767997 29.210727 1.848084
2005-03-14 09:03:28 51°15.793 2°53.856 3.8265 2.754845 29.056309 1.881794
2005-03-14 09:03:34 51°15.812 2°53.841 3.8167 2.752741 29.030287 1.915503
2005-03-14 09:03:39 51°15.828 2°53.828 3.8247 2.761158 29.125694 1.915503
2005-03-14 09:03:44 51°15.844 2°53.814 3.815 2.761158 29.125694 1.915503
2005-03-14 09:03:49 51°15.861 2°53.799 3.8133 2.745796 28.948862 1.982922
2005-03-14 09:03:53 51°15.876 2°53.786 3.8202 2.764209 29.160355 2.050341
2005-03-14 09:03:58 51°15.892 2°53.772 3.8164 2.75958 29.10261 2.016631
2005-03-14 09:04:03 51°15.906 2°53.758 3.8132 2.755897 29.05747 2.08405
2005-03-14 09:04:09 51°15.926 2°53.741 3.8067 2.75495 29.044894 2.151469
2005-03-14 09:04:13 51°15.94 2°53.727 3.8144 2.75495 29.044894 2.151469
2005-03-14 09:04:18 51°15.957 2°53.712 3.8093 2.753056 29.023694 2.08405
2005-03-14 09:04:23 51°15.971 2°53.698 3.8196 2.754424 29.043523 2.016631
2005-03-14 09:04:29 51°15.992 2°53.678 3.8129 2.753267 29.031661 2.117759
2005-03-14 09:04:33 51°16.004 2°53.665 3.8222 2.757475 29.07975 2.016631
2005-03-14 09:04:39 51°16.022 2°53.648 3.817 2.750636 29.001117 1.982922
2005-03-14 09:04:43 51°16.036 2°53.633 3.8263 2.750636 29.001117 1.982922
2005-03-14 09:04:49 51°16.054 2°53.616 3.8312 2.750742 29.003127 2.016631
2005-03-14 09:04:53 51°16.068 2°53.602 3.8244 2.750005 28.995364 2.016631
2005-03-14 09:04:59 51°16.085 2°53.586 3.8298 2.759054 29.098873 2.117759
2005-03-14 09:05:04 51°16.101 2°53.571 3.8253 2.749689 28.988546 2.117759
2005-03-14 09:05:09 51°16.117 2°53.555 3.8287 2.761263 29.122957 2.050341
2005-03-14 09:05:14 51°16.134 2°53.541 3.8303 2.761263 29.122957 2.050341
2005-03-14 09:05:19 51°16.149 2°53.526 3.8403 2.755792 29.056248 2.185178
2005-03-14 09:05:23 51°16.162 2°53.514 3.8239 2.752635 29.015653 2.117759
2005-03-14 09:05:29 51°16.181 2°53.496 3.8249 2.750321 28.987995 2.117759
2005-03-14 09:05:33 51°16.195 2°53.482 3.8219 2.758948 29.088951 2.252597
2005-03-14 09:05:39 51°16.213 2°53.465 3.8287 2.752425 29.013999 2.252597
2005-03-14 09:05:44 51°16.23 2°53.449 3.8276 2.752425 29.013999 2.252597
2005-03-14 09:05:49 51°16.244 2°53.435 3.8266 2.746007 28.936356 2.286306
2005-03-14 09:05:53 51°16.258 2°53.421 3.8319 2.749794 28.977951 2.421144
2005-03-14 09:05:58 51°16.274 2°53.405 3.8311 2.747585 28.953097 2.387435
2005-03-14 09:06:03 51°16.29 2°53.39 3.8385 2.753477 29.023058 2.353725
2005-03-14 09:06:09 51°16.307 2°53.373 3.8297 2.760211 29.102032 2.353725
2005-03-14 09:06:13 51°16.321 2°53.359 3.8336 2.760211 29.102032 2.353725
2005-03-14 09:06:18 51°16.337 2°53.344 3.8266 2.734749 28.805757 2.286306
2005-03-14 09:06:23 51°16.351 2°53.331 3.8338 2.754424 29.034051 2.252597
2005-03-14 09:06:29 51°16.371 2°53.312 3.8274 2.747375 28.950655 2.218888
2005-03-14 09:06:33 51°16.384 2°53.3 3.8254 2.759159 29.086652 2.185178
2005-03-14 09:06:38 51°16.4 2°53.285 3.826 2.750426 28.98449 2.218888
2005-03-14 09:06:43 51°16.414 2°53.271 3.8258 2.750426 28.98449 2.218888
2005-03-14 09:06:48 51°16.432 2°53.255 3.833 2.755476 29.043898 2.185178
2005-03-14 09:06:53 51°16.448 2°53.24 3.8148 2.754424 29.032473 2.151469
2005-03-14 09:06:59 51°16.465 2°53.223 3.8214 2.758212 29.076448 2.151469
2005-03-14 09:07:03 51°16.48 2°53.21 3.8168 2.75958 29.095492 2.117759
2005-03-14 09:07:09 51°16.497 2°53.193 3.8167 2.759054 29.091755 2.08405
2005-03-14 09:07:13 51°16.509 2°53.181 3.8173 2.759054 29.091755 2.08405
2005-03-14 09:07:18 51°16.526 2°53.163 3.8254 2.755792 29.052299 2.117759
2005-03-14 09:07:22 51°16.539 2°53.151 3.8196 2.751794 29.004305 2.08405
2005-03-14 09:07:28 51°16.558 2°53.132 3.8209 2.75495 29.047263 2.151469
2005-03-14 09:07:33 51°16.573 2°53.117 3.8271 2.72791 28.735047 2.050341
2005-03-14 09:07:38 51°16.589 2°53.101 3.8414 2.760842 29.118068 2.016631
2005-03-14 09:07:43 51°16.603 2°53.088 3.8293 2.760842 29.118068 2.016631
2005-03-14 09:07:49 51°16.624 2°53.069 3.8236 2.74748 28.96447 2.016631
2005-03-14 09:07:53 51°16.637 2°53.057 3.8172 2.748111 28.971011 1.982922
2005-03-14 09:07:59 51°16.655 2°53.042 3.8234 2.749479 28.986103 2.050341
2005-03-14 09:08:03 51°16.668 2°53.03 3.8187 2.753688 29.032602 2.016631
2005-03-14 09:08:08 51°16.685 2°53.015 3.827 2.753056 29.020539 2.050341
2005-03-14 09:08:13 51°16.701 2°53.002 3.8213 2.753056 29.020539 2.050341
2005-03-14 09:08:19 51°16.719 2°52.988 3.8227 2.755897 29.052731 2.050341
2005-03-14 09:08:23 51°16.734 2°52.976 3.8127 2.728121 28.735144 2.08405
2005-03-14 09:08:29 51°16.752 2°52.962 3.8187 2.753898 29.035045 2.08405
2005-03-14 09:08:33 51°16.766 2°52.949 3.8198 2.756528 29.067171 2.185178
2005-03-14 09:08:39 51°16.783 2°52.934 3.8086 2.760001 29.105917 2.320016
2005-03-14 09:08:42 51°16.794 2°52.924 3.8159 2.760001 29.105917 2.320016
2005-03-14 09:08:48 51°16.813 2°52.907 3.8111 2.758422 29.088376 2.387435
2005-03-14 09:08:53 51°16.828 2°52.892 3.806 2.743692 28.919715 2.488563
2005-03-14 09:08:58 51°16.842 2°52.879 3.8078 2.760211 29.113901 2.589691
2005-03-14 09:09:03 51°16.856 2°52.866 3.8084 2.761369 29.128139 2.724529
2005-03-14 09:09:09 51°16.875 2°52.848 3.8003 2.768944 29.220146 2.758238
2005-03-14 09:09:13 51°16.887 2°52.836 3.803 2.768944 29.220146 2.758238
2005-03-14 09:09:19 51°16.903 2°52.82 3.8088 2.76442 29.168352 2.791947
2005-03-14 09:09:22 51°16.913 2°52.811 3.8132 2.771154 29.247424 2.893076
2005-03-14 09:09:29 51°16.932 2°52.793 3.8163 2.76221 29.145051 2.994204
2005-03-14 09:09:34 51°16.948 2°52.78 3.8155 2.764525 29.174335 2.960494
2005-03-14 09:09:38 51°16.962 2°52.77 3.8183 2.76684 29.202038 2.960494
2005-03-14 09:09:43 51°16.979 2°52.76 3.8255 2.76684 29.202038 2.960494
2005-03-14 09:09:49 51°16.997 2°52.75 3.809 2.770523 29.246447 2.960494
2005-03-14 09:09:54 51°17.014 2°52.742 3.8053 2.740641 28.896872 2.960494
2005-03-14 09:09:59 51°17.031 2°52.734 3.8115 2.775363 29.296362 2.994204
2005-03-14 09:10:02 51°17.043 2°52.729 3.8062 2.780834 29.359997 3.095332
2005-03-14 09:10:09 51°17.065 2°52.72 3.8009 2.774416 29.280572 3.19646
2005-03-14 09:10:14 51°17.082 2°52.712 3.7968 2.774416 29.280572 3.19646
2005-03-14 09:10:19 51°17.099 2°52.703 3.7882 2.769996 29.226019 3.297589
2005-03-14 09:10:24 51°17.116 2°52.694 3.7975 2.782202 29.369519 3.466136
2005-03-14 09:10:29 51°17.133 2°52.685 3.8067 2.783675 29.393046 3.533554
2005-03-14 09:10:33 51°17.148 2°52.676 3.803 2.778519 29.333072 3.668392
2005-03-14 09:10:39 51°17.165 2°52.665 3.8274 2.774626 29.292577 3.702101
2005-03-14 09:10:44 51°17.182 2°52.657 3.8128 2.774626 29.292577 3.702101
2005-03-14 09:10:49 51°17.198 2°52.65 3.8293 2.782623 29.391197 3.76952
2005-03-14 09:10:54 51°17.216 2°52.643 3.8255 2.787253 29.450689 3.702101
2005-03-14 09:10:59 51°17.233 2°52.637 3.8113 2.758317 29.114856 3.600973
2005-03-14 09:11:03 51°17.248 2°52.633 3.8217 2.78115 29.375653 3.533554
2005-03-14 09:11:09 51°17.269 2°52.628 3.8146 2.766735 29.202403 3.263879
2005-03-14 09:11:14 51°17.284 2°52.624 3.8074 2.766735 29.202403 3.263879
2005-03-14 09:11:19 51°17.301 2°52.62 3.8168 2.774521 29.286573 3.095332
2005-03-14 09:11:23 51°17.317 2°52.617 3.8063 2.775889 29.297699 2.893076
2005-03-14 09:11:29 51°17.337 2°52.611 3.7946 2.781045 29.358453 2.690819
2005-03-14 09:11:34 51°17.353 2°52.607 3.8004 2.777257 29.318387 2.555982
2005-03-14 09:11:39 51°17.37 2°52.601 3.7936 2.780834 29.359199 2.522272
2005-03-14 09:11:43 51°17.386 2°52.595 3.8036 2.780834 29.359199 2.522272
2005-03-14 09:11:48 51°17.403 2°52.588 3.7973 2.776941 29.315514 2.6234
2005-03-14 09:11:53 51°17.42 2°52.582 3.8023 2.783991 29.399117 2.589691
2005-03-14 09:11:59 51°17.439 2°52.574 3.8072 2.786937 29.440605 2.555982
2005-03-14 09:12:03 51°17.454 2°52.568 3.8014 2.788726 29.464633 2.589691
2005-03-14 09:12:09 51°17.473 2°52.562 3.7953 2.788937 29.469488 2.454853
2005-03-14 09:12:13 51°17.489 2°52.557 3.7959 2.788937 29.469488 2.454853
2005-03-14 09:12:19 51°17.508 2°52.551 3.785 2.786832 29.443386 2.454853
2005-03-14 09:12:22 51°17.52 2°52.548 3.7839 2.786727 29.443763 2.286306
2005-03-14 09:12:29 51°17.543 2°52.541 3.7829 2.788831 29.464255 2.320016
2005-03-14 09:12:34 51°17.561 2°52.536 3.7783 2.791041 29.489979 2.185178
2005-03-14 09:12:39 51°17.578 2°52.53 3.7756 2.798302 29.576938 2.151469
2005-03-14 09:12:42 51°17.59 2°52.527 3.7886 2.798302 29.576938 2.151469
2005-03-14 09:12:49 51°17.612 2°52.518 3.7775 2.768524 29.231152 2.016631
2005-03-14 09:12:53 51°17.628 2°52.512 3.7809 2.786937 29.45022 1.915503
2005-03-14 09:12:58 51°17.645 2°52.506 3.7765 2.799038 29.594376 1.881794
2005-03-14 09:13:03 51°17.661 2°52.5 3.7822 2.779467 29.369647 1.746956
2005-03-14 09:13:09 51°17.683 2°52.492 3.7848 2.789568 29.490481 1.746956
2005-03-14 09:13:13 51°17.697 2°52.486 3.7985 2.789568 29.490481 1.746956
2005-03-14 09:13:19 51°17.716 2°52.48 3.7925 2.79041 29.500287 1.679537
2005-03-14 09:13:24 51°17.733 2°52.474 3.7916 2.791041 29.511659 1.713247
2005-03-14 09:13:29 51°17.75 2°52.469 3.7855 2.785254 29.442638 1.645828
2005-03-14 09:13:34 51°17.767 2°52.463 3.7886 2.781676 29.400974 1.679537
2005-03-14 09:13:38 51°17.783 2°52.458 3.7785 2.77368 29.304679 1.713247
2005-03-14 09:13:44 51°17.802 2°52.452 3.787 2.77368 29.304679 1.713247
2005-03-14 09:13:49 51°17.819 2°52.446 3.7905 2.787464 29.461156 1.679537
2005-03-14 09:13:54 51°17.836 2°52.439 3.795 2.787253 29.4563 1.713247
2005-03-14 09:13:57 51°17.848 2°52.434 3.7913 2.798302 29.585794 1.713247
2005-03-14 09:14:03 51°17.867 2°52.427 3.8044 2.796829 29.57024 1.780665
2005-03-14 09:14:09 51°17.888 2°52.421 3.7969 2.796197 29.566909 1.814375
2005-03-14 09:14:13 51°17.903 2°52.417 3.8045 2.796197 29.566909 1.814375
2005-03-14 09:14:18 51°17.921 2°52.414 3.8029 2.809772 29.725129 1.848084
2005-03-14 09:14:23 51°17.936 2°52.41 3.7995 2.812613 29.757449 1.848084
2005-03-14 09:14:29 51°17.958 2°52.408 3.7936 2.796618 29.569398 1.982922
2005-03-14 09:14:33 51°17.973 2°52.407 3.803 2.804194 29.652845 2.117759
2005-03-14 09:14:38 51°17.99 2°52.407 3.8106 2.801564 29.617353 2.218888
2005-03-14 09:14:43 51°18.006 2°52.407 3.799 2.801564 29.617353 2.218888
2005-03-14 09:14:49 51°18.027 2°52.409 3.807 2.80893 29.703184 2.320016
2005-03-14 09:14:53 51°18.042 2°52.41 3.7963 2.805668 29.664362 2.353725
2005-03-14 09:14:58 51°18.06 2°52.413 3.7998 2.810929 29.725678 2.353725
2005-03-14 09:15:03 51°18.076 2°52.415 3.7966 2.806404 29.672945 2.421144
2005-03-14 09:15:09 51°18.096 2°52.418 3.8052 2.817032 29.794393 2.421144
2005-03-14 09:15:13 51°18.112 2°52.419 3.8023 2.817032 29.794393 2.421144
2005-03-14 09:15:19 51°18.131 2°52.424 3.7995 2.817874 29.802586 2.454853
2005-03-14 09:15:23 51°18.145 2°52.427 3.795 2.789463 29.471604 2.522272
2005-03-14 09:15:29 51°18.167 2°52.434 3.7966 2.807141 29.679914 2.589691
2005-03-14 09:15:33 51°18.18 2°52.439 3.8036 2.796829 29.561389 2.589691
2005-03-14 09:15:38 51°18.197 2°52.445 3.7981 2.814191 29.763702 2.555982
2005-03-14 09:15:43 51°18.214 2°52.452 3.7916 2.814191 29.763702 2.555982
2005-03-14 09:15:49 51°18.232 2°52.459 3.7963 2.803563 29.637421 2.6234
2005-03-14 09:15:54 51°18.249 2°52.465 3.8043 2.81135 29.728966 2.6234
2005-03-14 09:15:59 51°18.266 2°52.471 3.7986 2.820821 29.840997 2.589691
2005-03-14 09:16:03 51°18.281 2°52.477 3.7992 2.808193 29.692176 2.690819
2005-03-14 09:16:09 51°18.299 2°52.486 3.8072 2.80209 29.622677 2.65711
2005-03-14 09:16:14 51°18.317 2°52.497 3.8047 2.80209 29.622677 2.65711
2005-03-14 09:16:19 51°18.331 2°52.507 3.8048 2.815875 29.784951 2.589691
2005-03-14 09:16:22 51°18.341 2°52.516 3.8083 2.817138 29.802107 2.65711
2005-03-14 09:16:29 51°18.36 2°52.533 3.8099 2.817453 29.801733 2.555982
2005-03-14 09:16:34 51°18.374 2°52.548 3.8071 2.819979 29.829557 2.555982
2005-03-14 09:16:39 51°18.388 2°52.563 3.8158 2.814191 29.758844 2.555982
2005-03-14 09:16:43 51°18.401 2°52.578 3.8021 2.814191 29.758844 2.555982
2005-03-14 09:16:49 51°18.415 2°52.596 3.8069 2.821978 29.84881 2.522272
2005-03-14 09:16:53 51°18.427 2°52.611 3.8034 2.807246 29.67791 2.522272
2005-03-14 09:16:58 51°18.441 2°52.627 3.8009 2.806299 29.666068 2.454853
2005-03-14 09:17:03 51°18.452 2°52.643 3.8023 2.821768 29.843108 2.454853
2005-03-14 09:17:09 51°18.468 2°52.663 3.8027 2.810718 29.714331 2.421144
2005-03-14 09:17:14 51°18.481 2°52.68 3.7953 2.810718 29.714331 2.421144
2005-03-14 09:17:19 51°18.494 2°52.698 3.7898 2.820926 29.832483 2.522272
2005-03-14 09:17:23 51°18.506 2°52.713 3.7952 2.812507 29.738411 2.522272
2005-03-14 09:17:27 51°18.515 2°52.725 3.7966 2.818295 29.807493 2.555982
2005-03-14 09:17:33 51°18.532 2°52.747 3.7985 2.821347 29.844697 2.589691
2005-03-14 09:17:39 51°18.547 2°52.766 3.8022 2.81156 29.73061 2.522272
2005-03-14 09:17:44 51°18.56 2°52.783 3.7996 2.81156 29.73061 2.522272
2005-03-14 09:17:49 51°18.573 2°52.802 3.7961 2.80914 29.707254 2.555982
2005-03-14 09:17:53 51°18.582 2°52.816 3.8006 2.817138 29.80373 2.690819
2005-03-14 09:17:59 51°18.597 2°52.838 3.7961 2.816822 29.80086 2.690819
2005-03-14 09:18:03 51°18.607 2°52.854 3.7934 2.813244 29.757521 2.65711
2005-03-14 09:18:09 51°18.621 2°52.876 3.8007 2.805457 29.664331 2.724529
2005-03-14 09:18:13 51°18.632 2°52.893 3.7946 2.805457 29.664331 2.724529
2005-03-14 09:18:19 51°18.646 2°52.914 3.8056 2.807983 29.690531 2.758238
2005-03-14 09:18:23 51°18.657 2°52.931 3.8009 2.821662 29.850815 2.758238
2005-03-14 09:18:27 51°18.665 2°52.943 3.8014 2.819242 29.82178 2.791947
2005-03-14 09:18:33 51°18.681 2°52.967 3.794 2.810929 29.728105 2.893076
2005-03-14 09:18:39 51°18.694 2°52.988 3.7961 2.813349 29.757128 2.859366
2005-03-14 09:18:44 51°18.706 2°53.007 3.8015 2.813349 29.757128 2.859366
2005-03-14 09:18:49 51°18.718 2°53.027 3.8016 2.816085 29.790648 2.926785
2005-03-14 09:18:53 51°18.728 2°53.046 3.7991 2.817769 29.807847 2.960494
2005-03-14 09:18:59 51°18.739 2°53.068 3.7982 2.8043 29.650036 2.960494
2005-03-14 09:19:04 51°18.749 2°53.09 3.8021 2.806509 29.675787 2.994204
2005-03-14 09:19:09 51°18.758 2°53.113 3.801 2.809456 29.712551 3.027913
2005-03-14 09:19:13 51°18.765 2°53.133 3.8055 2.809456 29.712551 3.027913
2005-03-14 09:19:19 51°18.774 2°53.16 3.8083 2.817348 29.802128 3.095332
2005-03-14 09:19:23 51°18.78 2°53.179 3.7975 2.8204 29.836089 3.027913
2005-03-14 09:19:29 51°18.789 2°53.207 3.8015 2.811771 29.73549 2.994204
2005-03-14 09:19:33 51°18.795 2°53.229 3.7965 2.820715 29.838958 3.061623
2005-03-14 09:19:39 51°18.803 2°53.256 3.7932 2.816401 29.787033 3.095332
2005-03-14 09:19:44 51°18.81 2°53.28 3.7941 2.816401 29.787033 3.095332
2005-03-14 09:19:49 51°18.817 2°53.306 3.7957 2.818611 29.811984 3.027913
2005-03-14 09:19:54 51°18.824 2°53.328 3.7891 2.820084 29.829972 3.129042
2005-03-14 09:19:59 51°18.831 2°53.352 3.7961 2.814296 29.763309 3.129042
2005-03-14 09:20:03 51°18.837 2°53.371 3.8045 2.821347 29.845509 3.162751
2005-03-14 09:20:09 51°18.846 2°53.402 3.7979 2.792304 29.509498 3.19646
2005-03-14 09:20:13 51°18.852 2°53.421 3.7958 2.792304 29.509498 3.19646
2005-03-14 09:20:19 51°18.86 2°53.448 3.7973 2.818295 29.815605 3.061623
2005-03-14 09:20:23 51°18.867 2°53.469 3.7957 2.814928 29.777151 3.027913
2005-03-14 09:20:29 51°18.874 2°53.495 3.7968 2.822504 29.866321 2.893076
2005-03-14 09:20:33 51°18.881 2°53.516 3.7898 2.817979 29.811924 2.791947
2005-03-14 09:20:39 51°18.889 2°53.542 3.7838 2.812823 29.751804 2.6234
2005-03-14 09:20:43 51°18.894 2°53.562 3.7856 2.812823 29.751804 2.6234
2005-03-14 09:20:49 51°18.904 2°53.592 3.7887 2.819979 29.836864 2.555982
2005-03-14 09:20:54 51°18.911 2°53.613 3.7742 2.799459 29.597669 2.454853
2005-03-14 09:20:59 51°18.919 2°53.64 3.7788 2.811981 29.744419 2.286306
2005-03-14 09:21:03 51°18.925 2°53.658 3.7785 2.811981 29.744419 2.252597
2005-03-14 09:21:09 51°18.934 2°53.684 3.7747 2.809666 29.722284 2.185178
2005-03-14 09:21:13 51°18.94 2°53.704 3.7783 2.809666 29.722284 2.185178
2005-03-14 09:21:19 51°18.949 2°53.73 3.7826 2.807667 29.702209 2.117759
2005-03-14 09:21:23 51°18.955 2°53.748 3.7742 2.794093 29.543192 2.117759
2005-03-14 09:21:29 51°18.965 2°53.776 3.778 2.811034 29.743092 2.050341
2005-03-14 09:21:33 51°18.972 2°53.797 3.7751 2.810614 29.742233 2.117759
2005-03-14 09:21:38 51°18.98 2°53.82 3.7761 2.80672 29.697636 2.117759
2005-03-14 09:21:44 51°18.989 2°53.847 3.7768 2.80672 29.697636 2.117759
2005-03-14 09:21:49 51°18.996 2°53.868 3.7786 2.800617 29.626476 2.050341
2005-03-14 09:21:53 51°19.003 2°53.889 3.7815 2.791041 29.512463 2.117759
2005-03-14 09:21:59 51°19.012 2°53.914 3.7787 2.802721 29.651011 2.08405
2005-03-14 09:22:03 51°19.019 2°53.932 3.7806 2.805352 29.682493 2.117759
2005-03-14 09:22:09 51°19.028 2°53.96 3.7773 2.782097 29.412282 2.117759
2005-03-14 09:22:13 51°19.035 2°53.981 3.7775 2.782097 29.412282 2.117759
2005-03-14 09:22:19 51°19.044 2°54.006 3.7823 2.804089 29.669385 2.08405
2005-03-14 09:22:23 51°19.049 2°54.025 3.7757 2.779256 29.380793 1.982922
2005-03-14 09:22:29 51°19.06 2°54.055 3.7738 2.794619 29.558174 1.982922
2005-03-14 09:22:33 51°19.066 2°54.073 3.777 2.77873 29.372266 2.050341
2005-03-14 09:22:39 51°19.075 2°54.099 3.7831 2.789463 29.496483 1.982922
2005-03-14 09:22:43 51°19.081 2°54.117 3.7761 2.789463 29.496483 1.982922
2005-03-14 09:22:49 51°19.091 2°54.145 3.7744 2.794935 29.561049 1.949212
2005-03-14 09:22:54 51°19.099 2°54.168 3.7758 2.792935 29.537749 1.982922
2005-03-14 09:22:58 51°19.106 2°54.189 3.7807 2.791778 29.52426 1.949212
2005-03-14 09:23:03 51°19.113 2°54.209 3.7836 2.789463 29.499696 1.982922
2005-03-14 09:23:08 51°19.122 2°54.234 3.7765 2.79725 29.588836 2.050341
2005-03-14 09:23:14 51°19.131 2°54.26 3.7809 2.79725 29.588836 2.050341
2005-03-14 09:23:19 51°19.14 2°54.286 3.7801 2.794935 29.562659 2.117759
2005-03-14 09:23:23 51°19.146 2°54.302 3.7838 2.792199 29.531578 2.117759
2005-03-14 09:23:28 51°19.155 2°54.327 3.7909 2.805984 29.693898 2.286306
2005-03-14 09:23:33 51°19.164 2°54.35 3.7864 2.809561 29.733199 2.286306
2005-03-14 09:23:38 51°19.172 2°54.373 3.7802 2.79725 29.589642 2.421144
2005-03-14 09:23:43 51°19.179 2°54.394 3.7863 2.79725 29.589642 2.421144
2005-03-14 09:23:49 51°19.19 2°54.424 3.7849 2.808088 29.714398 2.555982
2005-03-14 09:23:53 51°19.197 2°54.443 3.7878 2.795882 29.572086 2.65711
2005-03-14 09:23:59 51°19.206 2°54.469 3.7832 2.809351 29.725887 2.758238
2005-03-14 09:24:04 51°19.214 2°54.492 3.7888 2.813349 29.770092 2.791947
2005-03-14 09:24:09 51°19.222 2°54.515 3.7828 2.80893 29.720978 2.859366
2005-03-14 09:24:13 51°19.23 2°54.536 3.7842 2.80893 29.720978 2.859366
2005-03-14 09:24:18 51°19.238 2°54.559 3.7865 2.793041 29.534953 2.825657
2005-03-14 09:24:23 51°19.247 2°54.583 3.7855 2.804089 29.663729 2.791947
2005-03-14 09:24:29 51°19.256 2°54.608 3.7924 2.81356 29.772546 2.724529
2005-03-14 09:24:33 51°19.264 2°54.628 3.786 2.813034 29.76722 2.690819
2005-03-14 09:24:38 51°19.273 2°54.651 3.787 2.814402 29.783176 2.589691
2005-03-14 09:24:43 51°19.281 2°54.672 3.7889 2.814402 29.783176 2.589691
2005-03-14 09:24:49 51°19.291 2°54.702 3.7842 2.807141 29.697692 2.555982
2005-03-14 09:24:53 51°19.298 2°54.721 3.7871 2.810929 29.743485 2.454853
2005-03-14 09:24:59 51°19.308 2°54.747 3.7892 2.80914 29.722623 2.421144
2005-03-14 09:25:04 51°19.316 2°54.771 3.7895 2.816296 29.802836 2.387435
2005-03-14 09:25:09 51°19.326 2°54.796 3.7885 2.820295 29.848671 2.353725
2005-03-14 09:25:13 51°19.333 2°54.815 3.7957 2.820295 29.848671 2.353725
2005-03-14 09:25:19 51°19.342 2°54.84 3.7993 2.81356 29.770925 2.353725
2005-03-14 09:25:24 51°19.351 2°54.864 3.7947 2.808719 29.713669 2.286306
2005-03-14 09:25:29 51°19.359 2°54.887 3.7859 2.813349 29.770092 2.252597
2005-03-14 09:25:34 51°19.368 2°54.91 3.7834 2.812297 29.756198 2.218888
2005-03-14 09:25:39 51°19.377 2°54.933 3.791 2.802406 29.640066 2.185178
2005-03-14 09:25:43 51°19.383 2°54.952 3.7798 2.802406 29.640066 2.185178
2005-03-14 09:25:49 51°19.395 2°54.982 3.7825 2.803563 29.651944 2.151469
2005-03-14 09:25:54 51°19.402 2°55.003 3.7812 2.803563 29.649522 2.117759
2005-03-14 09:25:59 51°19.411 2°55.026 3.7879 2.79967 29.606567 2.117759
2005-03-14 09:26:03 51°19.419 2°55.047 3.8014 2.777573 29.351594 2.08405
2005-03-14 09:26:09 51°19.428 2°55.074 3.8064 2.805457 29.676446 2.151469
2005-03-14 09:26:13 51°19.435 2°55.092 3.8143 2.805457 29.676446 2.151469
2005-03-14 09:26:19 51°19.444 2°55.118 3.8276 2.79967 29.610598 2.08405
2005-03-14 09:26:23 51°19.452 2°55.139 3.8306 2.789358 29.492044 2.151469
2005-03-14 09:26:29 51°19.46 2°55.164 3.8393 2.79988 29.61547 2.151469
2005-03-14 09:26:33 51°19.468 2°55.184 3.854 2.799775 29.611824 2.08405
2005-03-14 09:26:38 51°19.476 2°55.207 3.8601 2.791673 29.510176 2.117759
2005-03-14 09:26:43 51°19.484 2°55.228 3.8731 2.791673 29.510176 2.117759
2005-03-14 09:26:48 51°19.493 2°55.253 3.8777 2.788726 29.468642 2.050341
2005-03-14 09:26:53 51°19.501 2°55.276 3.895 2.778414 29.338232 2.050341
2005-03-14 09:26:59 51°19.51 2°55.301 3.9075 2.780308 29.35308 2.08405
2005-03-14 09:27:03 51°19.517 2°55.319 3.9171 2.779466 29.334514 2.050341
2005-03-14 09:27:09 51°19.527 2°55.346 3.9263 2.777572 29.302137 2.016631
2005-03-14 09:27:13 51°19.534 2°55.367 3.9378 2.777572 29.302137 2.016631
2005-03-14 09:27:19 51°19.543 2°55.391 3.9412 2.772837 29.238373 2.151469
2005-03-14 09:27:24 51°19.551 2°55.414 3.9411 2.752004 28.98548 2.218888
2005-03-14 09:27:29 51°19.56 2°55.436 3.9471 2.773574 29.223906 2.151469
2005-03-14 09:27:34 51°19.568 2°55.459 3.9486 2.758632 29.039513 2.08405
2005-03-14 09:27:38 51°19.575 2°55.479 3.9521 2.76242 29.071602 2.185178
2005-03-14 09:27:43 51°19.583 2°55.499 3.9581 2.76242 29.071602 2.185178
2005-03-14 09:27:48 51°19.592 2°55.524 3.956 2.759369 29.025215 2.08405
2005-03-14 09:27:53 51°19.6 2°55.547 3.9636 2.770837 29.15022 2.117759
2005-03-14 09:27:59 51°19.609 2°55.572 3.9569 2.766208 29.091055 2.050341
2005-03-14 09:28:04 51°19.617 2°55.594 3.9626 2.763156 29.052563 2.050341
2005-03-14 09:28:09 51°19.625 2°55.616 3.9612 2.753897 28.940655 2.08405
2005-03-14 09:28:13 51°19.633 2°55.636 3.9669 2.753897 28.940655 2.08405
2005-03-14 09:28:19 51°19.641 2°55.661 3.9677 2.767891 29.098731 2.117759
2005-03-14 09:28:23 51°19.648 2°55.679 3.9708 2.771153 29.13335 2.08405
2005-03-14 09:28:29 51°19.659 2°55.708 3.9721 2.761052 29.013259 2.08405
2005-03-14 09:28:34 51°19.667 2°55.728 3.9657 2.761578 29.017776 2.050341
2005-03-14 09:28:39 51°19.675 2°55.75 3.9744 2.761788 29.01864 2.050341
2005-03-14 09:28:44 51°19.683 2°55.773 3.9713 2.761788 29.01864 2.050341
2005-03-14 09:28:49 51°19.692 2°55.795 3.9706 2.75779 28.970021 2.050341
2005-03-14 09:28:54 51°19.7 2°55.817 3.9695 2.762946 29.028106 2.08405
2005-03-14 09:28:59 51°19.708 2°55.839 3.9641 2.766523 29.067933 2.08405
2005-03-14 09:29:03 51°19.716 2°55.859 3.9613 2.767049 29.072448 2.117759
2005-03-14 09:29:09 51°19.726 2°55.885 3.9677 2.765997 29.059485 2.117759
2005-03-14 09:29:14 51°19.733 2°55.906 3.9731 2.765997 29.059485 2.117759
2005-03-14 09:29:19 51°19.742 2°55.928 3.9679 2.760526 28.995393 2.117759
2005-03-14 09:29:23 51°19.749 2°55.948 3.9681 2.758106 28.967399 2.016631
2005-03-14 09:29:29 51°19.757 2°55.973 3.9665 2.757685 28.964099 2.117759
2005-03-14 09:29:33 51°19.764 2°55.993 3.9781 2.763472 29.032622 2.117759
2005-03-14 09:29:38 51°19.773 2°56.015 3.9814 2.763261 29.030972 2.117759
2005-03-14 09:29:43 51°19.78 2°56.036 3.9771 2.763261 29.030972 2.117759
2005-03-14 09:29:49 51°19.79 2°56.063 3.982 2.758526 28.975404 2.117759
2005-03-14 09:29:53 51°19.797 2°56.082 3.9886 2.761367 29.008272 2.117759
2005-03-14 09:29:59 51°19.806 2°56.106 3.9871 2.760526 28.997748 2.151469
2005-03-14 09:30:03 51°19.814 2°56.126 3.9861 2.746427 28.834686 2.08405
2005-03-14 09:30:09 51°19.826 2°56.146 3.9872 2.76021 28.990957 2.218888
2005-03-14 09:30:14 51°19.837 2°56.164 3.9892 2.76021 28.990957 2.218888
2005-03-14 09:30:19 51°19.849 2°56.181 3.9921 2.752634 28.900991 2.151469
2005-03-14 09:30:23 51°19.859 2°56.193 3.9942 2.763577 29.024411 2.252597
2005-03-14 09:30:29 51°19.875 2°56.211 3.9951 2.752213 28.88987 2.286306
2005-03-14 09:30:33 51°19.886 2°56.225 3.998 2.764524 29.031438 2.286306
2005-03-14 09:30:39 51°19.901 2°56.241 4.0032 2.762419 29.007883 2.387435
2005-03-14 09:30:43 51°19.912 2°56.252 4.0055 2.762419 29.007883 2.387435
2005-03-14 09:30:49 51°19.928 2°56.269 4.0098 2.756212 28.933746 2.353725
2005-03-14 09:30:53 51°19.94 2°56.282 4.0081 2.765576 29.03968 2.421144
2005-03-14 09:30:59 51°19.955 2°56.297 4.0082 2.761683 28.992305 2.488563
2005-03-14 09:31:04 51°19.97 2°56.313 4.0073 2.764103 29.017934 2.454853
2005-03-14 09:31:09 51°19.982 2°56.325 4.0142 2.768417 29.064678 2.488563
2005-03-14 09:31:13 51°19.994 2°56.338 4.0153 2.768417 29.064678 2.488563
2005-03-14 09:31:19 51°20.009 2°56.354 4.0116 2.768311 29.059531 2.555982
2005-03-14 09:31:23 51°20.022 2°56.367 4.0081 2.751477 28.861835 2.454853
2005-03-14 09:31:29 51°20.036 2°56.383 4.0125 2.766312 29.031706 2.421144
2005-03-14 09:31:33 51°20.049 2°56.395 4.0085 2.765891 29.026056 2.387435
2005-03-14 09:31:39 51°20.063 2°56.411 4.0105 2.758 28.934075 2.320016
2005-03-14 09:31:42 51°20.073 2°56.42 4.0278 2.758 28.934075 2.320016
2005-03-14 09:31:48 51°20.089 2°56.438 4.0229 2.764523 29.007109 2.286306
2005-03-14 09:31:53 51°20.102 2°56.45 4.0294 2.762314 28.981574 2.252597
2005-03-14 09:31:58 51°20.115 2°56.465 4.0308 2.766102 29.026135 2.218888
2005-03-14 09:32:04 51°20.132 2°56.483 4.0379 2.755685 28.904987 2.151469
2005-03-14 09:32:09 51°20.145 2°56.497 4.0328 2.7701 29.070782 2.117759
2005-03-14 09:32:13 51°20.157 2°56.511 4.0428 2.7701 29.070782 2.117759
2005-03-14 09:32:19 51°20.172 2°56.527 4.0385 2.769258 29.057909 2.117759
2005-03-14 09:32:23 51°20.183 2°56.539 4.0396 2.766102 29.019075 2.117759
2005-03-14 09:32:29 51°20.199 2°56.556 4.0403 2.770416 29.064218 2.08405
2005-03-14 09:32:33 51°20.21 2°56.569 4.0381 2.739061 28.697512 2.117759
2005-03-14 09:32:39 51°20.225 2°56.585 4.0379 2.767575 29.024331 2.08405
2005-03-14 09:32:43 51°20.237 2°56.598 4.042 2.767575 29.024331 2.08405
2005-03-14 09:32:49 51°20.252 2°56.613 4.0409 2.763261 28.972155 2.151469
2005-03-14 09:32:53 51°20.264 2°56.626 4.0442 2.754212 28.865343 2.151469
2005-03-14 09:32:59 51°20.279 2°56.642 4.0411 2.742112 28.724178 2.151469
2005-03-14 09:33:03 51°20.291 2°56.655 4.0389 2.768101 29.021785 2.08405
2005-03-14 09:33:09 51°20.306 2°56.67 4.0456 2.75821 28.909154 2.050341
2005-03-14 09:33:13 51°20.316 2°56.683 4.0413 2.75821 28.909154 2.050341
2005-03-14 09:33:19 51°20.332 2°56.699 4.0378 2.757789 28.905076 2.08405
2005-03-14 09:33:24 51°20.345 2°56.715 4.0401 2.761998 28.952101 2.08405
2005-03-14 09:33:29 51°20.358 2°56.729 4.0446 2.766312 29.002695 2.08405
2005-03-14 09:33:33 51°20.37 2°56.743 4.0418 2.764734 28.982904 2.117759
2005-03-14 09:33:38 51°20.382 2°56.757 4.0447 2.762103 28.950188 2.08405
2005-03-14 09:33:43 51°20.394 2°56.773 4.0389 2.762103 28.950188 2.08405
2005-03-14 09:33:49 51°20.41 2°56.793 4.0358 2.758 28.903602 2.08405
2005-03-14 09:33:53 51°20.42 2°56.806 4.0374 2.767048 29.009634 2.08405
2005-03-14 09:33:59 51°20.435 2°56.823 4.0359 2.745479 28.759133 2.050341
2005-03-14 09:34:03 51°20.446 2°56.838 4.0342 2.767048 29.006501 2.117759
2005-03-14 09:34:09 51°20.46 2°56.855 4.0284 2.763997 28.972053 2.08405
2005-03-14 09:34:13 51°20.472 2°56.868 4.0268 2.763997 28.972053 2.08405
2005-03-14 09:34:19 51°20.486 2°56.885 4.0343 2.762419 28.956178 2.117759
2005-03-14 09:34:24 51°20.498 2°56.901 4.0392 2.762945 28.964598 2.050341
2005-03-14 09:34:29 51°20.511 2°56.916 4.0305 2.761682 28.950802 2.050341
2005-03-14 09:34:34 51°20.524 2°56.932 4.0318 2.764628 28.986386 1.982922
2005-03-14 09:34:39 51°20.537 2°56.948 4.0303 2.76526 28.99446 2.117759
2005-03-14 09:34:43 51°20.548 2°56.962 4.0302 2.76526 28.99446 2.117759
2005-03-14 09:34:49 51°20.562 2°56.979 4.028 2.753475 28.86152 2.016631
2005-03-14 09:34:54 51°20.575 2°56.995 4.0341 2.763261 28.974503 2.117759
2005-03-14 09:34:59 51°20.588 2°57.01 4.0314 2.762103 28.959572 2.050341
2005-03-14 09:35:03 51°20.598 2°57.022 4.0339 2.752002 28.843737 1.982922
2005-03-14 09:35:09 51°20.614 2°57.041 4.0274 2.757263 28.906029 2.016631
2005-03-14 09:35:13 51°20.624 2°57.053 4.0379 2.757263 28.906029 2.016631
2005-03-14 09:35:19 51°20.64 2°57.071 4.0252 2.762103 28.962701 1.982922
2005-03-14 09:35:23 51°20.65 2°57.084 4.025 2.761788 28.958274 1.982922
2005-03-14 09:35:29 51°20.666 2°57.102 4.0268 2.760315 28.938136 2.050341
2005-03-14 09:35:33 51°20.677 2°57.116 4.0209 2.752108 28.845731 2.050341
2005-03-14 09:35:38 51°20.69 2°57.132 4.0219 2.752529 28.851368 2.050341
2005-03-14 09:35:43 51°20.701 2°57.146 4.0236 2.752529 28.851368 2.050341
2005-03-14 09:35:48 51°20.715 2°57.163 4.0187 2.760209 28.939266 2.050341
2005-03-14 09:35:53 51°20.728 2°57.178 4.0166 2.761682 28.957058 2.050341
2005-03-14 09:35:59 51°20.743 2°57.195 4.0187 2.765996 29.008451 2.016631
2005-03-14 09:36:03 51°20.753 2°57.207 4.0223 2.75821 28.921651 1.982922
2005-03-14 09:36:09 51°20.769 2°57.226 4.0207 2.737272 28.679979 2.016631
2005-03-14 09:36:14 51°20.781 2°57.242 4.0204 2.737272 28.679979 2.016631
2005-03-14 09:36:18 51°20.793 2°57.255 4.0171 2.756737 28.905421 2.016631
2005-03-14 09:36:23 51°20.806 2°57.271 4.0181 2.764208 28.994056 1.982922
2005-03-14 09:36:29 51°20.82 2°57.288 4.0128 2.76284 28.980603 2.050341
2005-03-14 09:36:34 51°20.834 2°57.303 4.0196 2.744743 28.77006 1.982922
2005-03-14 09:36:38 51°20.845 2°57.316 4.0148 2.739377 28.708909 1.949212
2005-03-14 09:36:44 51°20.86 2°57.333 4.0219 2.739377 28.708909 1.949212
2005-03-14 09:36:47 51°20.868 2°57.342 4.0264 2.763156 28.9819 2.016631
2005-03-14 09:36:54 51°20.885 2°57.364 4.0232 2.763892 28.991193 2.151469
2005-03-14 09:36:59 51°20.898 2°57.379 4.0253 2.751371 28.850479 1.982922
2005-03-14 09:37:03 51°20.909 2°57.392 4.0221 2.763156 28.987383 2.050341
2005-03-14 09:37:09 51°20.926 2°57.412 4.0285 2.756211 28.906376 1.982922
2005-03-14 09:37:13 51°20.935 2°57.423 4.0293 2.756211 28.906376 1.982922
2005-03-14 09:37:19 51°20.95 2°57.442 4.0364 2.756001 28.902383 1.949212
2005-03-14 09:37:23 51°20.961 2°57.458 4.0346 2.751582 28.848231 1.949212
2005-03-14 09:37:29 51°20.975 2°57.476 4.0391 2.754949 28.886328 1.915503
2005-03-14 09:37:33 51°20.986 2°57.49 4.0376 2.758316 28.924429 2.016631
2005-03-14 09:37:39 51°21 2°57.508 4.0402 2.763576 28.98363 2.016631
2005-03-14 09:37:44 51°21.012 2°57.525 4.0376 2.763576 28.98363 2.016631
2005-03-14 09:37:49 51°21.024 2°57.541 4.0399 2.759683 28.936318 2.151469
2005-03-14 09:37:53 51°21.034 2°57.554 4.0494 2.742112 28.730386 2.050341
2005-03-14 09:37:59 51°21.049 2°57.573 4.046 2.764313 28.984307 2.117759
2005-03-14 09:38:03 51°21.059 2°57.587 4.0413 2.76305 28.96816 2.185178
2005-03-14 09:38:09 51°21.075 2°57.608 4.0496 2.756211 28.888419 2.117759
2005-03-14 09:38:13 51°21.085 2°57.621 4.0458 2.756211 28.888419 2.117759
2005-03-14 09:38:19 51°21.099 2°57.639 4.0486 2.761998 28.953664 2.151469
2005-03-14 09:38:24 51°21.111 2°57.656 4.0436 2.754001 28.860576 2.151469
2005-03-14 09:38:29 51°21.125 2°57.673 4.0496 2.766522 29.003559 2.185178
2005-03-14 09:38:33 51°21.135 2°57.687 4.0431 2.759999 28.925896 2.218888
2005-03-14 09:38:39 51°21.149 2°57.705 4.0476 2.763471 28.965197 2.218888
2005-03-14 09:38:43 51°21.16 2°57.72 4.0435 2.763471 28.965197 2.218888
2005-03-14 09:38:49 51°21.175 2°57.739 4.0485 2.761682 28.942985 2.218888
2005-03-14 09:38:53 51°21.185 2°57.752 4.0471 2.768206 29.018298 2.185178
2005-03-14 09:38:59 51°21.199 2°57.77 4.0466 2.759683 28.921472 2.252597
2005-03-14 09:39:03 51°21.209 2°57.783 4.0496 2.759367 28.917048 2.286306
2005-03-14 09:39:08 51°21.223 2°57.801 4.0544 2.764208 28.9737 2.286306
2005-03-14 09:39:14 51°21.238 2°57.822 4.0447 2.764208 28.9737 2.286306
2005-03-14 09:39:19 51°21.249 2°57.837 4.0527 2.764208 28.9737 2.185178
2005-03-14 09:39:23 51°21.259 2°57.851 4.0413 2.768522 29.022727 2.185178
2005-03-14 09:39:29 51°21.275 2°57.872 4.0328 2.770731 29.047459 2.218888
2005-03-14 09:39:33 51°21.285 2°57.885 4.0307 2.756737 28.886689 2.252597
2005-03-14 09:39:39 51°21.299 2°57.904 4.0255 2.763576 28.963283 2.320016
2005-03-14 09:39:43 51°21.309 2°57.917 4.0312 2.763576 28.963283 2.320016
2005-03-14 09:39:49 51°21.324 2°57.937 4.0366 2.763366 28.960854 2.353725
2005-03-14 09:39:53 51°21.334 2°57.953 4.0276 2.768732 29.020455 2.353725
2005-03-14 09:39:59 51°21.348 2°57.972 4.0287 2.760525 28.931188 2.353725
2005-03-14 09:40:04 51°21.361 2°57.988 4.0251 2.767364 29.017197 2.387435
2005-03-14 09:40:09 51°21.373 2°58.005 4.0273 2.770836 29.058874 2.421144
2005-03-14 09:40:13 51°21.385 2°58.02 4.0333 2.770836 29.058874 2.421144
2005-03-14 09:40:19 51°21.399 2°58.038 4.0331 2.771573 29.069738 2.488563
2005-03-14 09:40:23 51°21.41 2°58.054 4.0335 2.761051 28.947422 2.488563
2005-03-14 09:40:29 51°21.423 2°58.073 4.0344 2.768943 29.039348 2.522272
2005-03-14 09:40:33 51°21.435 2°58.089 4.0287 2.763682 28.98093 2.454853
2005-03-14 09:40:39 51°21.448 2°58.109 4.0376 2.771047 29.066801 2.522272
2005-03-14 09:40:43 51°21.457 2°58.123 4.032 2.771047 29.066801 2.522272
2005-03-14 09:40:49 51°21.473 2°58.147 4.028 2.76526 28.99916 2.522272
2005-03-14 09:40:53 51°21.483 2°58.161 4.0267 2.770416 29.057151 2.555982
2005-03-14 09:40:59 51°21.496 2°58.182 4.0238 2.771783 29.071384 2.589691
2005-03-14 09:41:03 51°21.507 2°58.199 4.0216 2.765049 28.994379 2.65711
2005-03-14 09:41:09 51°21.519 2°58.219 4.0188 2.763787 28.980579 2.690819
2005-03-14 09:41:14 51°21.531 2°58.238 4.0199 2.763787 28.980579 2.690819
2005-03-14 09:41:18 51°21.542 2°58.254 4.0159 2.774414 29.10335 2.791947
2005-03-14 09:41:24 51°21.555 2°58.275 4.0157 2.76789 29.031115 2.926785
2005-03-14 09:41:29 51°21.567 2°58.294 4.0128 2.76789 29.032684 2.893076
2005-03-14 09:41:33 51°21.577 2°58.31 4.0117 2.772099 29.083673 2.994204
2005-03-14 09:41:38 51°21.589 2°58.329 4.0095 2.774625 29.114434 2.994204
2005-03-14 09:41:43 51°21.601 2°58.349 4.0091 2.774625 29.114434 2.994204
2005-03-14 09:41:49 51°21.615 2°58.371 4.0106 2.771152 29.075086 2.994204
2005-03-14 09:41:54 51°21.626 2°58.388 4.0062 2.771784 29.083955 3.027913
2005-03-14 09:41:59 51°21.638 2°58.407 3.9981 2.774835 29.120801 3.061623
2005-03-14 09:42:03 51°21.649 2°58.424 3.9925 2.768311 29.048534 3.095332
2005-03-14 09:42:09 51°21.664 2°58.446 3.9929 2.774098 29.117008 3.129042
2005-03-14 09:42:13 51°21.673 2°58.461 3.9928 2.774098 29.117008 3.129042
2005-03-14 09:42:19 51°21.687 2°58.481 3.9899 2.778518 29.168899 3.162751
2005-03-14 09:42:23 51°21.697 2°58.496 3.9945 2.777992 29.164391 3.129042
2005-03-14 09:42:29 51°21.711 2°58.518 3.9967 2.775466 29.13755 3.162751
2005-03-14 09:42:34 51°21.724 2°58.536 3.9963 2.750424 28.850461 3.162751
2005-03-14 09:42:39 51°21.736 2°58.554 3.9915 2.768206 29.061458 3.23017
2005-03-14 09:42:43 51°21.746 2°58.569 3.9887 2.768206 29.061458 3.23017
2005-03-14 09:42:49 51°21.761 2°58.593 3.9918 2.779044 29.189187 3.19646
2005-03-14 09:42:53 51°21.771 2°58.608 3.9931 2.761998 28.994386 3.129042
2005-03-14 09:42:58 51°21.783 2°58.627 3.9955 2.775151 29.144931 3.061623
2005-03-14 09:43:03 51°21.795 2°58.647 3.998 2.775572 29.149012 3.129042
2005-03-14 09:43:09 51°21.807 2°58.668 3.9877 2.779781 29.19692 3.061623
2005-03-14 09:43:14 51°21.819 2°58.687 3.9947 2.779781 29.19692 3.061623
2005-03-14 09:43:19 51°21.831 2°58.706 3.9972 2.778939 29.18718 3.027913
2005-03-14 09:43:23 51°21.842 2°58.723 3.9865 2.774204 29.134763 3.027913
2005-03-14 09:43:28 51°21.853 2°58.742 3.9892 2.763682 29.010713 2.994204
2005-03-14 09:43:33 51°21.865 2°58.761 3.9839 2.774625 29.13648 2.994204
2005-03-14 09:43:39 51°21.879 2°58.781 3.9874 2.769048 29.075124 3.027913
2005-03-14 09:43:42 51°21.887 2°58.794 3.9861 2.769048 29.075124 3.027913
2005-03-14 09:43:48 51°21.901 2°58.816 3.9889 2.771363 29.103473 3.061623
2005-03-14 09:43:53 51°21.914 2°58.835 3.9846 2.784305 29.253237 3.095332
2005-03-14 09:43:59 51°21.927 2°58.855 3.9794 2.777676 29.176516 3.19646
2005-03-14 09:44:03 51°21.938 2°58.872 3.9801 2.78399 29.249583 3.19646
2005-03-14 09:44:09 51°21.951 2°58.892 3.9761 2.781464 29.221144 3.162751
2005-03-14 09:44:14 51°21.963 2°58.911 3.9783 2.781464 29.221144 3.162751
2005-03-14 09:44:19 51°21.974 2°58.929 3.9841 2.783779 29.249521 3.23017
2005-03-14 09:44:23 51°21.985 2°58.946 3.9843 2.780307 29.210909 3.19646
2005-03-14 09:44:29 51°21.998 2°58.967 3.9805 2.779991 29.207255 3.19646
2005-03-14 09:44:33 51°22.009 2°58.983 3.9837 2.778202 29.188921 3.061623
2005-03-14 09:44:38 51°22.021 2°59.002 3.9751 2.773888 29.141358 2.994204
2005-03-14 09:44:44 51°22.034 2°59.023 3.9761 2.773888 29.141358 2.994204
2005-03-14 09:44:49 51°22.046 2°59.041 3.982 2.784305 29.262736 2.960494
2005-03-14 09:44:53 51°22.057 2°59.058 3.9722 2.78662 29.287165 2.960494
2005-03-14 09:44:58 51°22.069 2°59.076 3.9768 2.778413 29.192936 2.960494
2005-03-14 09:45:03 51°22.081 2°59.095 3.9723 2.775151 29.155183 2.994204
2005-03-14 09:45:09 51°22.094 2°59.115 3.9747 2.777571 29.183193 3.095332
2005-03-14 09:45:14 51°22.106 2°59.133 3.9751 2.777571 29.183193 3.095332
2005-03-14 09:45:19 51°22.117 2°59.153 3.9752 2.782411 29.241597 3.129042
2005-03-14 09:45:23 51°22.128 2°59.169 3.9826 2.784095 29.261883 3.027913
2005-03-14 09:45:29 51°22.142 2°59.192 3.9732 2.785568 29.281319 3.061623
2005-03-14 09:45:33 51°22.151 2°59.206 3.9679 2.784621 29.270351 2.960494
2005-03-14 09:45:39 51°22.164 2°59.227 3.966 2.782201 29.243909 2.994204
2005-03-14 09:45:43 51°22.175 2°59.244 3.9633 2.782201 29.243909 2.994204
2005-03-14 09:45:49 51°22.188 2°59.264 3.9633 2.781885 29.240253 3.027913
2005-03-14 09:45:53 51°22.199 2°59.28 3.961 2.788304 29.313799 2.994204
2005-03-14 09:45:59 51°22.212 2°59.301 3.9634 2.78178 29.239035 2.960494
2005-03-14 09:46:03 51°22.222 2°59.318 3.9612 2.787462 29.306428 2.994204
2005-03-14 09:46:09 51°22.235 2°59.337 3.9658 2.763366 29.029047 2.994204
2005-03-14 09:46:14 51°22.247 2°59.356 3.9603 2.763366 29.029047 2.994204
2005-03-14 09:46:19 51°22.258 2°59.375 3.9626 2.783148 29.261211 2.994204
2005-03-14 09:46:24 51°22.27 2°59.394 3.9599 2.789567 29.33716 2.994204
2005-03-14 09:46:29 51°22.281 2°59.412 3.9677 2.780097 29.22745 2.960494
2005-03-14 09:46:33 51°22.292 2°59.429 3.9673 2.786094 29.29772 2.994204
2005-03-14 09:46:39 51°22.305 2°59.449 3.9684 2.783779 29.270109 2.960494
2005-03-14 09:46:43 51°22.315 2°59.466 3.9593 2.783779 29.270109 2.960494
2005-03-14 09:46:49 51°22.329 2°59.486 3.9567 2.785884 29.296075 2.994204
2005-03-14 09:46:54 51°22.34 2°59.505 3.9578 2.785147 29.288334 2.994204
2005-03-14 09:46:59 51°22.352 2°59.523 3.9607 2.771574 29.131912 2.994204
2005-03-14 09:47:03 51°22.362 2°59.54 3.9573 2.790198 29.34527 3.061623
2005-03-14 09:47:09 51°22.376 2°59.562 3.9553 2.790829 29.350203 3.027913
2005-03-14 09:47:13 51°22.386 2°59.576 3.9582 2.790829 29.350203 3.027913
2005-03-14 09:47:19 51°22.399 2°59.596 3.9572 2.779886 29.225804 3.027913
2005-03-14 09:47:24 51°22.41 2°59.615 3.9558 2.78883 29.332596 2.994204
2005-03-14 09:47:29 51°22.422 2°59.633 3.9564 2.78862 29.330157 2.994204
2005-03-14 09:47:33 51°22.432 2°59.649 3.9541 2.79104 29.359795 2.960494
2005-03-14 09:47:39 51°22.445 2°59.67 3.9562 2.78641 29.306932 2.960494
2005-03-14 09:47:44 51°22.457 2°59.688 3.9501 2.78641 29.306932 2.960494
2005-03-14 09:47:49 51°22.469 2°59.706 3.9534 2.784411 29.284558 2.926785
2005-03-14 09:47:54 51°22.481 2°59.724 3.9532 2.789672 29.344735 2.994204
2005-03-14 09:47:58 51°22.491 2°59.741 3.9542 2.79104 29.361385 3.027913
2005-03-14 09:48:03 51°22.503 2°59.759 3.9541 2.785253 29.294312 2.926785
2005-03-14 09:48:09 51°22.516 2°59.779 3.9539 2.790198 29.351628 2.926785
2005-03-14 09:48:14 51°22.528 2°59.797 3.9526 2.790198 29.351628 2.926785
2005-03-14 09:48:19 51°22.54 2°59.816 3.9597 2.793881 29.395911 2.926785
2005-03-14 09:48:24 51°22.551 2°59.834 3.9519 2.788514 29.335292 2.859366
2005-03-14 09:48:29 51°22.563 2°59.852 3.9538 2.780938 29.248286 2.926785
2005-03-14 09:48:34 51°22.575 2°59.871 3.9494 2.792303 29.379204 2.926785
2005-03-14 09:48:39 51°22.587 2°59.889 3.9575 2.794407 29.402011 2.994204
2005-03-14 09:48:43 51°22.596 2°59.904 3.9485 2.794407 29.402011 2.994204
2005-03-14 09:48:49 51°22.61 2°59.926 3.9503 2.781991 29.259686 3.027913
2005-03-14 09:48:53 51°22.62 2°59.942 3.9557 2.793986 29.397131 3.027913
2005-03-14 09:48:58 51°22.632 2°59.961 3.9482 2.786305 29.310474 3.027913
2005-03-14 09:49:03 51°22.644 2°59.979 3.9464 2.7862 29.310049 2.960494
2005-03-14 09:49:09 51°22.656 3°0 3.9457 2.785358 29.299499 2.994204
2005-03-14 09:49:13 51°22.667 3°0.017 3.943 2.785358 29.299499 2.994204
2005-03-14 09:49:19 51°22.68 3°0.037 3.9495 2.787883 29.327974 2.994204
2005-03-14 09:49:23 51°22.69 3°0.054 3.9427 2.787041 29.319806 2.960494
2005-03-14 09:49:29 51°22.703 3°0.074 3.9427 2.789567 29.348284 2.859366
2005-03-14 09:49:34 51°22.715 3°0.093 3.9469 2.787988 29.331577 2.893076
2005-03-14 09:49:39 51°22.726 3°0.112 3.9455 2.784832 29.296575 2.893076
2005-03-14 09:49:44 51°22.738 3°0.131 3.9479 2.784832 29.296575 2.893076
2005-03-14 09:49:49 51°22.75 3°0.149 3.9503 2.78641 29.316458 2.859366
2005-03-14 09:49:53 51°22.761 3°0.166 3.9474 2.785989 29.312373 2.825657
2005-03-14 09:49:59 51°22.773 3°0.187 3.9444 2.793355 29.399366 2.690819
2005-03-14 09:50:03 51°22.784 3°0.204 3.9403 2.788935 29.348914 2.724529
2005-03-14 09:50:09 51°22.797 3°0.225 3.9412 2.785779 29.310728 2.690819
2005-03-14 09:50:14 51°22.809 3°0.243 3.9427 2.785779 29.310728 2.690819
2005-03-14 09:50:19 51°22.821 3°0.262 3.9487 2.785568 29.308288 2.724529
2005-03-14 09:50:23 51°22.83 3°0.277 3.9431 2.792724 29.391248 2.690819
2005-03-14 09:50:29 51°22.846 3°0.3 3.9482 2.789882 29.358304 2.65711
2005-03-14 09:50:33 51°22.855 3°0.315 3.9438 2.795039 29.419689 2.690819
2005-03-14 09:50:39 51°22.87 3°0.338 3.9433 2.789988 29.363502 2.6234
2005-03-14 09:50:43 51°22.878 3°0.35 3.9433 2.789988 29.363502 2.6234
2005-03-14 09:50:49 51°22.892 3°0.372 3.9464 2.795775 29.429826 2.690819
2005-03-14 09:50:53 51°22.903 3°0.389 3.9457 2.786094 29.314387 2.65711
2005-03-14 09:50:59 51°22.916 3°0.409 3.9449 2.794407 29.413163 2.6234
2005-03-14 09:51:03 51°22.927 3°0.426 3.9523 2.786936 29.324146 2.589691
2005-03-14 09:51:09 51°22.94 3°0.447 3.948 2.78883 29.347694 2.589691
2005-03-14 09:51:13 51°22.95 3°0.464 3.9502 2.78883 29.347694 2.589691
2005-03-14 09:51:19 51°22.963 3°0.485 3.9525 2.796196 29.434709 2.6234
2005-03-14 09:51:24 51°22.976 3°0.504 3.9495 2.788094 29.339154 2.6234
2005-03-14 09:51:29 51°22.988 3°0.524 3.95 2.783148 29.280235 2.555982
2005-03-14 09:51:33 51°22.998 3°0.538 3.9524 2.783148 29.280235 2.6234
2005-03-14 09:51:39 51°23.011 3°0.559 3.9467 2.792513 29.386419 2.65711
2005-03-14 09:51:43 51°23.022 3°0.576 3.9494 2.792513 29.386419 2.65711
2005-03-14 09:51:47 51°23.03 3°0.589 3.9487 2.794618 29.410026 2.65711
2005-03-14 09:51:53 51°23.046 3°0.613 3.9495 2.791356 29.371407 2.690819
2005-03-14 09:51:59 51°23.059 3°0.633 3.9507 2.794723 29.41045 2.758238
2005-03-14 09:52:03 51°23.069 3°0.648 3.9572 2.789882 29.354328 2.724529
2005-03-14 09:52:09 51°23.083 3°0.67 3.9593 2.786515 29.315296 2.791947
2005-03-14 09:52:13 51°23.094 3°0.687 3.9618 2.786515 29.315296 2.791947
2005-03-14 09:52:18 51°23.106 3°0.705 3.9543 2.795249 29.417348 2.724529
2005-03-14 09:52:23 51°23.117 3°0.721 3.9613 2.794618 29.410026 2.758238
2005-03-14 09:52:29 51°23.131 3°0.744 3.9565 2.788304 29.336825 2.724529
2005-03-14 09:52:33 51°23.142 3°0.76 3.9575 2.794618 29.408433 2.724529
2005-03-14 09:52:39 51°23.156 3°0.78 3.9612 2.790303 29.355232 2.758238
2005-03-14 09:52:42 51°23.164 3°0.793 3.9627 2.790303 29.355232 2.758238
2005-03-14 09:52:49 51°23.18 3°0.817 3.9615 2.787988 29.327605 2.791947
2005-03-14 09:52:53 51°23.191 3°0.833 3.9662 2.784621 29.28779 2.758238
2005-03-14 09:52:59 51°23.204 3°0.853 3.9662 2.786831 29.311809 2.893076
2005-03-14 09:53:03 51°23.215 3°0.87 3.9696 2.792092 29.374378 2.893076
2005-03-14 09:53:09 51°23.228 3°0.89 3.9704 2.793355 29.387424 2.893076
2005-03-14 09:53:13 51°23.239 3°0.907 3.9714 2.793355 29.387424 2.893076
2005-03-14 09:53:18 51°23.251 3°0.925 3.9729 2.788935 29.334609 2.859366
2005-03-14 09:53:23 51°23.262 3°0.942 3.9775 2.78157 29.248472 2.960494
2005-03-14 09:53:29 51°23.276 3°0.964 3.9814 2.778834 29.214408 2.893076
2005-03-14 09:53:33 51°23.287 3°0.98 3.984 2.781254 29.240065 2.994204
2005-03-14 09:53:39 51°23.301 3°1.003 3.9813 2.785252 29.284003 2.994204
2005-03-14 09:53:44 51°23.312 3°1.019 3.9879 2.785252 29.284003 2.994204
2005-03-14 09:53:49 51°23.324 3°1.037 3.9886 2.785779 29.290098 3.061623
2005-03-14 09:53:53 51°23.335 3°1.053 3.9906 2.792829 29.369395 3.061623
2005-03-14 09:53:59 51°23.348 3°1.073 3.9913 2.773888 29.148457 3.162751
2005-03-14 09:54:03 51°23.359 3°1.09 3.9926 2.7842 29.265477 3.129042
2005-03-14 09:54:09 51°23.373 3°1.111 3.9975 2.790829 29.339877 3.19646
2005-03-14 09:54:13 51°23.383 3°1.125 3.9988 2.790829 29.339877 3.19646
2005-03-14 09:54:19 51°23.397 3°1.145 4.0007 2.785884 29.28022 3.23017
2005-03-14 09:54:23 51°23.406 3°1.159 4.002 2.790408 29.33024 3.263879
2005-03-14 09:54:29 51°23.422 3°1.182 4.0105 2.790619 29.329503 3.297589
2005-03-14 09:54:33 51°23.431 3°1.196 4.0063 2.786515 29.279609 3.263879
2005-03-14 09:54:39 51°23.445 3°1.216 4.0106 2.785147 29.262981 3.297589
2005-03-14 09:54:43 51°23.454 3°1.23 4.0125 2.785147 29.262981 3.297589
2005-03-14 09:54:49 51°23.47 3°1.254 4.0132 2.790093 29.318651 3.331298
2005-03-14 09:54:53 51°23.48 3°1.268 4.0102 2.790303 29.318709 3.263879
2005-03-14 09:54:59 51°23.493 3°1.287 4.0153 2.785778 29.263166 3.398717
2005-03-14 09:55:04 51°23.505 3°1.305 4.0143 2.785989 29.262436 3.19646
2005-03-14 09:55:08 51°23.515 3°1.322 4.0189 2.787567 29.279118 3.23017
2005-03-14 09:55:13 51°23.527 3°1.34 4.0151 2.787567 29.279118 3.23017
2005-03-14 09:55:19 51°23.54 3°1.36 4.0199 2.788198 29.284049 3.297589
2005-03-14 09:55:23 51°23.549 3°1.374 4.0167 2.780517 29.194389 3.297589
2005-03-14 09:55:29 51°23.564 3°1.395 4.0145 2.78441 29.237056 3.466136
2005-03-14 09:55:33 51°23.575 3°1.411 4.0153 2.785673 29.251664 3.735811
2005-03-14 09:55:39 51°23.588 3°1.431 4.0179 2.790618 29.307303 3.836939
2005-03-14 09:55:44 51°23.601 3°1.45 4.0186 2.790618 29.307303 3.836939
2005-03-14 09:55:49 51°23.612 3°1.466 4.0169 2.789566 29.294335 3.971777
2005-03-14 09:55:53 51°23.623 3°1.481 4.0219 2.788198 29.276926 4.039195
2005-03-14 09:55:59 51°23.636 3°1.5 4.0267 2.788724 29.283012 4.072905
2005-03-14 09:56:04 51°23.65 3°1.52 4.0228 2.785252 29.244423 4.241452
2005-03-14 09:56:09 51°23.661 3°1.536 4.0226 2.789671 29.294761 4.376289
2005-03-14 09:56:13 51°23.672 3°1.551 4.0202 2.789671 29.294761 4.376289
2005-03-14 09:56:19 51°23.685 3°1.57 4.0187 2.792407 29.324832 4.544836
2005-03-14 09:56:23 51°23.696 3°1.585 4.0264 2.791881 29.319537 4.612255
2005-03-14 09:56:29 51°23.709 3°1.604 4.0195 2.790829 29.307361 4.679674
2005-03-14 09:56:33 51°23.72 3°1.62 4.0184 2.789777 29.293603 4.713383
2005-03-14 09:56:38 51°23.732 3°1.637 4.0202 2.790829 29.304193 4.949349
2005-03-14 09:56:43 51°23.744 3°1.655 4.0215 2.790829 29.304193 4.949349
2005-03-14 09:56:49 51°23.758 3°1.674 4.022 2.796406 29.368724 4.949349
2005-03-14 09:56:53 51°23.767 3°1.688 4.0221 2.796406 29.368724 5.084187
2005-03-14 09:56:59 51°23.782 3°1.709 4.0218 2.799563 29.40367 5.117896
2005-03-14 09:57:03 51°23.793 3°1.725 4.025 2.790092 29.296463 5.353862
2005-03-14 09:57:09 51°23.807 3°1.743 4.0211 2.770416 29.06893 5.320153
2005-03-14 09:57:13 51°23.817 3°1.758 4.0163 2.770416 29.06893 5.320153
2005-03-14 09:57:19 51°23.831 3°1.777 4.0204 2.799668 29.405683 5.421281
2005-03-14 09:57:23 51°23.842 3°1.792 4.024 2.802509 29.439364 5.387571
2005-03-14 09:57:28 51°23.853 3°1.81 4.0216 2.798615 29.392709 5.522409
2005-03-14 09:57:33 51°23.865 3°1.827 4.0219 2.802825 29.441427 5.556118
2005-03-14 09:57:39 51°23.878 3°1.847 4.0211 2.79588 29.361842 5.724665
2005-03-14 09:57:43 51°23.888 3°1.86 4.0177 2.79588 29.361842 5.724665
2005-03-14 09:57:49 51°23.902 3°1.881 4.0187 2.802404 29.439737 5.724665
2005-03-14 09:57:54 51°23.914 3°1.898 4.021 2.80293 29.445828 5.758375
2005-03-14 09:57:59 51°23.927 3°1.915 4.0213 2.799036 29.39917 5.724665
2005-03-14 09:58:03 51°23.938 3°1.93 4.0169 2.800299 29.412195 5.657247
2005-03-14 09:58:09 51°23.951 3°1.948 4.0191 2.796616 29.370366 5.690956
2005-03-14 09:58:13 51°23.962 3°1.964 4.0172 2.796616 29.370366 5.690956
2005-03-14 09:58:19 51°23.976 3°1.982 4.0203 2.800089 29.412144 5.690956
2005-03-14 09:58:23 51°23.986 3°1.998 4.0206 2.802088 29.436083 5.623537
2005-03-14 09:58:29 51°24.001 3°2.018 4.0174 2.806508 29.487252 5.792084
2005-03-14 09:58:33 51°24.01 3°2.032 4.0175 2.80535 29.473053 5.556118
2005-03-14 09:58:39 51°24.024 3°2.051 4.013 2.80514 29.472209 5.623537
2005-03-14 09:58:43 51°24.034 3°2.065 4.0157 2.80514 29.472209 5.623537
2005-03-14 09:58:49 51°24.048 3°2.085 4.0174 2.799352 29.404413 5.353862
2005-03-14 09:58:53 51°24.059 3°2.101 4.0137 2.801983 29.434865 5.353862
2005-03-14 09:58:59 51°24.072 3°2.12 4.0194 2.804508 29.463306 5.320153
2005-03-14 09:59:03 51°24.082 3°2.134 4.018 2.792723 29.329278 5.286443
2005-03-14 09:59:08 51°24.095 3°2.154 4.0192 2.804403 29.464477 5.219024
2005-03-14 09:59:13 51°24.107 3°2.172 4.0229 2.804403 29.464477 5.219024
2005-03-14 09:59:19 51°24.121 3°2.192 4.0184 2.780727 29.191299 5.185315
2005-03-14 09:59:24 51°24.133 3°2.209 4.0256 2.807349 29.497797 5.084187
2005-03-14 09:59:29 51°24.144 3°2.228 4.0122 2.803035 29.450231 4.949349
2005-03-14 09:59:34 51°24.156 3°2.246 4.0146 2.80535 29.475443 4.814512
2005-03-14 09:59:39 51°24.168 3°2.264 4.0242 2.806718 29.491283 4.612255
2005-03-14 09:59:43 51°24.18 3°2.281 4.0156 2.806718 29.491283 4.612255
2005-03-14 09:59:49 51°24.193 3°2.3 4.0157 2.805771 29.477926 4.443708
2005-03-14 09:59:54 51°24.207 3°2.32 4.0139 2.797458 29.381696 4.275161
2005-03-14 09:59:59 51°24.218 3°2.337 4.0103 2.80535 29.47146 4.106614
2005-03-14 10:00:04 51°24.231 3°2.355 4.0134 2.806402 29.48683 3.938067
2005-03-14 10:00:09 51°24.243 3°2.373 4.0173 2.801141 29.42671 3.836939
2005-03-14 10:00:14 51°24.256 3°2.391 4.0144 2.801141 29.42671 3.836939
2005-03-14 10:00:19 51°24.268 3°2.409 4.0139 2.805771 29.480316 3.735811
2005-03-14 10:00:23 51°24.278 3°2.424 4.0131 2.797142 29.382013 3.735811
2005-03-14 10:00:29 51°24.293 3°2.445 4.0134 2.801772 29.437202 3.499845
2005-03-14 10:00:33 51°24.303 3°2.462 4.0144 2.788093 29.278874 3.297589
2005-03-14 10:00:39 51°24.317 3°2.481 4.0144 2.797142 29.383602 3.19646
2005-03-14 10:00:43 51°24.326 3°2.496 4.0137 2.797142 29.383602 3.19646
2005-03-14 10:00:49 51°24.342 3°2.517 4.0172 2.789356 29.293484 3.095332
2005-03-14 10:00:53 51°24.352 3°2.535 4.0106 2.796195 29.371845 2.893076
2005-03-14 10:00:59 51°24.367 3°2.555 4.0193 2.792723 29.331656 2.791947
2005-03-14 10:01:04 51°24.379 3°2.573 4.014 2.796827 29.375977 2.65711
2005-03-14 10:01:09 51°24.391 3°2.591 4.0182 2.787672 29.273213 2.555982
2005-03-14 10:01:13 51°24.402 3°2.608 4.0132 2.787672 29.273213 2.555982
2005-03-14 10:01:19 51°24.416 3°2.628 4.0146 2.801667 29.435188 2.522272
2005-03-14 10:01:23 51°24.426 3°2.642 4.0164 2.787988 29.276865 2.454853
2005-03-14 10:01:29 51°24.441 3°2.665 4.0193 2.797458 29.387256 2.387435
2005-03-14 10:01:33 51°24.453 3°2.681 4.0144 2.791776 29.320697 2.353725
2005-03-14 10:01:39 51°24.467 3°2.701 4.0161 2.798616 29.399066 2.320016
2005-03-14 10:01:43 51°24.477 3°2.716 4.0179 2.798616 29.399066 2.320016
2005-03-14 10:01:49 51°24.492 3°2.738 4.0121 2.797353 29.386038 2.353725
2005-03-14 10:01:54 51°24.506 3°2.758 4.0124 2.790513 29.306085 2.252597
2005-03-14 10:01:59 51°24.517 3°2.775 4.0134 2.795248 29.36009 2.252597
2005-03-14 10:02:04 51°24.53 3°2.794 4.0083 2.801983 29.43566 2.320016
2005-03-14 10:02:09 51°24.542 3°2.812 4.0146 2.798195 29.392604 2.185178
2005-03-14 10:02:13 51°24.553 3°2.829 4.0121 2.798195 29.392604 2.185178
2005-03-14 10:02:19 51°24.567 3°2.851 4.0098 2.798405 29.395835 2.286306
2005-03-14 10:02:24 51°24.58 3°2.869 4.0102 2.792092 29.322765 2.218888
2005-03-14 10:02:29 51°24.591 3°2.888 4.0084 2.804824 29.470944 2.252597
2005-03-14 10:02:33 51°24.603 3°2.905 4.0108 2.796195 29.371845 2.151469
2005-03-14 10:02:39 51°24.616 3°2.926 4.0063 2.804719 29.471319 2.218888
2005-03-14 10:02:43 51°24.627 3°2.941 4.0074 2.804719 29.471319 2.218888
2005-03-14 10:02:49 51°24.641 3°2.964 4.0056 2.790829 29.309738 2.185178
2005-03-14 10:02:54 51°24.654 3°2.982 4.0099 2.805666 29.48388 2.151469
2005-03-14 10:02:59 51°24.665 3°3.001 4.0097 2.790198 29.304809 2.050341
2005-03-14 10:03:03 51°24.675 3°3.016 4.0068 2.807876 29.511069 2.151469
2005-03-14 10:03:09 51°24.69 3°3.039 4.0029 2.805245 29.479005 2.117759
2005-03-14 10:03:13 51°24.701 3°3.056 4.0061 2.805245 29.479005 2.117759
2005-03-14 10:03:19 51°24.714 3°3.077 3.996 2.799142 29.411516 2.117759
2005-03-14 10:03:24 51°24.727 3°3.096 3.996 2.795248 29.365647 2.185178
2005-03-14 10:03:29 51°24.74 3°3.117 3.9937 2.804719 29.474506 2.08405
2005-03-14 10:03:33 51°24.75 3°3.132 3.9924 2.800299 29.424123 2.151469
2005-03-14 10:03:39 51°24.763 3°3.153 3.989 2.798616 29.404629 2.117759
2005-03-14 10:03:44 51°24.775 3°3.172 3.9908 2.798616 29.404629 2.117759
2005-03-14 10:03:49 51°24.787 3°3.192 3.9815 2.804193 29.472397 2.320016
2005-03-14 10:03:54 51°24.799 3°3.211 3.9796 2.811138 29.55445 2.185178
2005-03-14 10:03:59 51°24.81 3°3.23 3.9795 2.804087 29.476757 2.151469
2005-03-14 10:04:03 51°24.82 3°3.249 3.9766 2.804193 29.479571 2.218888
2005-03-14 10:04:09 51°24.832 3°3.27 3.9794 2.804614 29.487638 2.353725